C2014 PADQ-PASY
Flight info
| Callsign | C2014 |
|---|---|
| Flight time | 4h 59m |
| Altitude | 5000 |
| Route | PADQ KODI7 ODK DCT NUVGE DCT CFNJX DCT BAILY T388 WIXER T227 SYA DCT CIDAK DCT PASY |
| Aircraft | C30J/M-G/C |
Departure
| Time | 2026-05-04 14:36 |
|---|---|
| Airport | Kodiak Airport (PADQ) |
Arrival
| Time | 2026-05-04 19:35 |
|---|---|
| Airport | Eareckson Air Station (PASY) |
| Time | Latitude | Longitude | Altitude | Speed | Heading |
|---|---|---|---|---|---|
| 2026-05-04 14:17 | 57.75354 | -152.51227 | 46 ft | 0 kts | 194° |
| 2026-05-04 14:24 | 57.75351 | -152.51229 | 45 ft | 4 kts | 194° |
| 2026-05-04 14:24 | 57.75291 | -152.51253 | 47 ft | 9 kts | 177° |
| 2026-05-04 14:25 | 57.75264 | -152.51234 | 49 ft | 0 kts | 148° |
| 2026-05-04 14:25 | 57.75177 | -152.51111 | 52 ft | 9 kts | 142° |
| 2026-05-04 14:25 | 57.75110 | -152.51137 | 49 ft | 14 kts | 269° |
| 2026-05-04 14:26 | 57.75112 | -152.51302 | 50 ft | 12 kts | 272° |
| 2026-05-04 14:26 | 57.75122 | -152.51475 | 50 ft | 4 kts | 304° |
| 2026-05-04 14:26 | 57.75123 | -152.51479 | 50 ft | 0 kts | 307° |
| 2026-05-04 14:33 | 57.75124 | -152.51481 | 50 ft | 3 kts | 308° |
| 2026-05-04 14:33 | 57.75167 | -152.51519 | 56 ft | 1 kts | 347° |
| 2026-05-04 14:34 | 57.75176 | -152.51525 | 55 ft | 4 kts | 326° |
| 2026-05-04 14:34 | 57.75204 | -152.51512 | 65 ft | 4 kts | 124° |
| 2026-05-04 14:34 | 57.75203 | -152.51500 | 64 ft | 0 kts | 91° |
| 2026-05-04 14:35 | 57.75194 | -152.51153 | 57 ft | 55 kts | 92° |
| 2026-05-04 14:35 | 57.75173 | -152.50105 | 51 ft | 105 kts | 92° |
| 2026-05-04 14:35 | 57.75172 | -152.48498 | 151 ft | 135 kts | 83° |
| 2026-05-04 14:35 | 57.75140 | -152.46645 | 464 ft | 146 kts | 91° |
| 2026-05-04 14:36 | 57.74998 | -152.44872 | 1202 ft | 130 kts | 99° |
| 2026-05-04 14:36 | 57.74868 | -152.42981 | 1181 ft | 173 kts | 95° |
| 2026-05-04 14:36 | 57.75166 | -152.40603 | 1239 ft | 208 kts | 51° |
| 2026-05-04 14:36 | 57.76148 | -152.38486 | 1717 ft | 214 kts | 54° |
| 2026-05-04 14:37 | 57.77095 | -152.36495 | 2692 ft | 199 kts | 54° |
| 2026-05-04 14:37 | 57.78021 | -152.34568 | 3254 ft | 208 kts | 45° |
| 2026-05-04 14:37 | 57.79400 | -152.33515 | 3783 ft | 232 kts | 5° |
| 2026-05-04 14:37 | 57.80874 | -152.35049 | 3877 ft | 272 kts | 301° |
| 2026-05-04 14:38 | 57.81005 | -152.38584 | 3828 ft | 290 kts | 243° |
| 2026-05-04 14:38 | 57.80037 | -152.41830 | 4603 ft | 273 kts | 244° |
| 2026-05-04 14:38 | 57.79907 | -152.45264 | 5490 ft | 275 kts | 277° |
| 2026-05-04 14:38 | 57.80287 | -152.48973 | 5463 ft | 302 kts | 278° |
| 2026-05-04 14:39 | 57.80679 | -152.52878 | 5824 ft | 307 kts | 283° |
| 2026-05-04 14:39 | 57.81543 | -152.56599 | 6026 ft | 316 kts | 296° |
| 2026-05-04 14:39 | 57.82585 | -152.60356 | 5950 ft | 334 kts | 297° |
| 2026-05-04 14:40 | 57.84761 | -152.68055 | 6603 ft | 335 kts | 297° |
| 2026-05-04 14:40 | 57.85848 | -152.71980 | 6690 ft | 341 kts | 295° |
| 2026-05-04 14:40 | 57.86849 | -152.75981 | 6638 ft | 341 kts | 293° |
| 2026-05-04 14:40 | 57.87832 | -152.80100 | 6518 ft | 344 kts | 293° |
| 2026-05-04 14:41 | 57.88837 | -152.84154 | 6339 ft | 348 kts | 295° |
| 2026-05-04 14:41 | 57.89950 | -152.88259 | 6058 ft | 355 kts | 296° |
| 2026-05-04 14:41 | 57.90831 | -152.97019 | 5224 ft | 357 kts | 260° |
| 2026-05-04 14:42 | 57.90271 | -153.06182 | 4903 ft | 348 kts | 261° |
| 2026-05-04 14:42 | 57.90012 | -153.10609 | 4914 ft | 333 kts | 261° |
| 2026-05-04 14:42 | 57.89780 | -153.14899 | 4926 ft | 329 kts | 261° |
| 2026-05-04 14:43 | 57.89550 | -153.19193 | 4930 ft | 330 kts | 261° |
| 2026-05-04 14:43 | 57.89316 | -153.23480 | 4941 ft | 330 kts | 261° |
| 2026-05-04 14:43 | 57.89088 | -153.27767 | 4943 ft | 330 kts | 261° |
| 2026-05-04 14:43 | 57.88878 | -153.32059 | 4941 ft | 330 kts | 261° |
| 2026-05-04 14:44 | 57.88669 | -153.36349 | 4942 ft | 329 kts | 261° |
| 2026-05-04 14:44 | 57.88465 | -153.40637 | 4945 ft | 330 kts | 262° |
| 2026-05-04 14:44 | 57.88268 | -153.44919 | 4943 ft | 328 kts | 262° |
| 2026-05-04 14:44 | 57.88081 | -153.49141 | 4943 ft | 328 kts | 262° |
| 2026-05-04 14:45 | 57.87883 | -153.53415 | 4940 ft | 328 kts | 262° |
| 2026-05-04 14:45 | 57.87689 | -153.57684 | 4941 ft | 328 kts | 263° |
| 2026-05-04 14:45 | 57.87499 | -153.61954 | 4941 ft | 327 kts | 263° |
| 2026-05-04 14:45 | 57.87309 | -153.66224 | 4925 ft | 328 kts | 263° |
| 2026-05-04 14:46 | 57.87131 | -153.70478 | 4927 ft | 326 kts | 262° |
| 2026-05-04 14:46 | 57.86950 | -153.74729 | 4928 ft | 326 kts | 263° |
| 2026-05-04 14:46 | 57.86761 | -153.78962 | 4923 ft | 324 kts | 263° |
| 2026-05-04 14:46 | 57.86577 | -153.83164 | 4920 ft | 321 kts | 262° |
| 2026-05-04 14:47 | 57.86377 | -153.87344 | 4921 ft | 321 kts | 263° |
| 2026-05-04 14:47 | 57.86198 | -153.91536 | 4922 ft | 323 kts | 263° |
| 2026-05-04 14:47 | 57.86022 | -153.95751 | 4923 ft | 323 kts | 263° |
| 2026-05-04 14:47 | 57.85848 | -153.99969 | 4925 ft | 324 kts | 263° |
| 2026-05-04 14:48 | 57.85653 | -154.04182 | 4928 ft | 323 kts | 258° |
| 2026-05-04 14:48 | 57.85149 | -154.08294 | 4927 ft | 322 kts | 256° |
| 2026-05-04 14:48 | 57.84740 | -154.12434 | 4861 ft | 323 kts | 251° |
| 2026-05-04 14:48 | 57.84096 | -154.16420 | 4843 ft | 323 kts | 250° |
| 2026-05-04 14:49 | 57.83463 | -154.20468 | 4839 ft | 323 kts | 250° |
| 2026-05-04 14:49 | 57.82837 | -154.24518 | 4839 ft | 323 kts | 250° |
| 2026-05-04 14:49 | 57.82215 | -154.28585 | 4871 ft | 324 kts | 250° |
| 2026-05-04 14:49 | 57.81592 | -154.32645 | 4871 ft | 324 kts | 250° |
| 2026-05-04 14:50 | 57.80973 | -154.36702 | 4872 ft | 324 kts | 250° |
| 2026-05-04 14:50 | 57.80354 | -154.40760 | 4875 ft | 324 kts | 250° |
| 2026-05-04 14:50 | 57.79733 | -154.44825 | 4861 ft | 323 kts | 250° |
| 2026-05-04 14:50 | 57.79118 | -154.48877 | 4861 ft | 323 kts | 250° |
| 2026-05-04 14:51 | 57.78501 | -154.52944 | 4858 ft | 323 kts | 250° |
| 2026-05-04 14:51 | 57.77885 | -154.56993 | 4856 ft | 323 kts | 250° |
| 2026-05-04 14:51 | 57.77271 | -154.61053 | 4858 ft | 323 kts | 250° |
| 2026-05-04 14:51 | 57.76665 | -154.65054 | 4856 ft | 323 kts | 250° |
| 2026-05-04 14:52 | 57.76045 | -154.69160 | 4861 ft | 324 kts | 250° |
| 2026-05-04 14:52 | 57.75434 | -154.73221 | 4864 ft | 324 kts | 250° |
| 2026-05-04 14:52 | 57.74831 | -154.77218 | 4853 ft | 323 kts | 250° |
| 2026-05-04 14:52 | 57.74222 | -154.81274 | 4852 ft | 324 kts | 250° |
| 2026-05-04 14:53 | 57.73612 | -154.85338 | 4850 ft | 324 kts | 250° |
| 2026-05-04 14:53 | 57.73005 | -154.89392 | 4851 ft | 324 kts | 250° |
| 2026-05-04 14:53 | 57.72398 | -154.93455 | 4851 ft | 324 kts | 250° |
| 2026-05-04 14:53 | 57.71791 | -154.97511 | 4852 ft | 324 kts | 250° |
| 2026-05-04 14:54 | 57.71186 | -155.01566 | 4855 ft | 324 kts | 250° |
| 2026-05-04 14:54 | 57.70580 | -155.05628 | 4852 ft | 324 kts | 252° |
| 2026-05-04 14:54 | 57.69975 | -155.09689 | 4865 ft | 323 kts | 252° |
| 2026-05-04 14:54 | 57.69375 | -155.13736 | 4864 ft | 323 kts | 251° |
| 2026-05-04 14:55 | 57.68776 | -155.17781 | 4864 ft | 323 kts | 251° |
| 2026-05-04 14:55 | 57.68177 | -155.21829 | 4864 ft | 323 kts | 251° |
| 2026-05-04 14:55 | 57.67578 | -155.25877 | 4865 ft | 322 kts | 252° |
| 2026-05-04 14:55 | 57.66991 | -155.29848 | 4865 ft | 322 kts | 251° |
| 2026-05-04 14:56 | 57.66397 | -155.33877 | 4861 ft | 321 kts | 252° |
| 2026-05-04 14:56 | 57.65804 | -155.37904 | 4865 ft | 322 kts | 252° |
| 2026-05-04 14:56 | 57.65212 | -155.41935 | 4865 ft | 321 kts | 252° |
| 2026-05-04 14:56 | 57.64625 | -155.45953 | 4861 ft | 321 kts | 252° |
| 2026-05-04 14:57 | 57.64037 | -155.49968 | 4861 ft | 321 kts | 252° |
| 2026-05-04 14:57 | 57.63446 | -155.53983 | 4862 ft | 320 kts | 251° |
| 2026-05-04 14:57 | 57.62840 | -155.57980 | 4862 ft | 320 kts | 251° |
| 2026-05-04 14:57 | 57.62230 | -155.61968 | 4863 ft | 320 kts | 250° |
| 2026-05-04 14:58 | 57.61611 | -155.65970 | 4867 ft | 321 kts | 251° |
| 2026-05-04 14:58 | 57.61198 | -155.68616 | 4875 ft | 321 kts | 250° |
| 2026-05-04 14:58 | 57.60365 | -155.73913 | 4876 ft | 321 kts | 250° |
| 2026-05-04 14:58 | 57.59933 | -155.76598 | 4866 ft | 321 kts | 250° |
| 2026-05-04 14:59 | 57.59073 | -155.81884 | 4871 ft | 322 kts | 250° |
| 2026-05-04 14:59 | 57.58634 | -155.84580 | 4871 ft | 321 kts | 250° |
| 2026-05-04 14:59 | 57.57337 | -155.92495 | 4891 ft | 321 kts | 250° |
| 2026-05-04 15:00 | 57.56676 | -155.96464 | 4888 ft | 321 kts | 250° |
| 2026-05-04 15:00 | 57.56001 | -156.00436 | 4895 ft | 321 kts | 250° |
| 2026-05-04 15:00 | 57.55330 | -156.04392 | 4898 ft | 320 kts | 249° |
| 2026-05-04 15:01 | 57.53969 | -156.12271 | 4894 ft | 318 kts | 249° |
| 2026-05-04 15:01 | 57.53276 | -156.16184 | 4893 ft | 318 kts | 249° |
| 2026-05-04 15:01 | 57.52583 | -156.20096 | 4895 ft | 319 kts | 248° |
| 2026-05-04 15:01 | 57.51900 | -156.24013 | 4894 ft | 318 kts | 249° |
| 2026-05-04 15:02 | 57.51220 | -156.27930 | 4892 ft | 318 kts | 249° |
| 2026-05-04 15:02 | 57.50519 | -156.31833 | 4899 ft | 320 kts | 249° |
| 2026-05-04 15:02 | 57.49812 | -156.35769 | 4900 ft | 320 kts | 249° |
| 2026-05-04 15:02 | 57.49121 | -156.39696 | 4900 ft | 320 kts | 249° |
| 2026-05-04 15:03 | 57.48408 | -156.43615 | 4903 ft | 320 kts | 248° |
| 2026-05-04 15:03 | 57.47694 | -156.47510 | 4898 ft | 318 kts | 248° |
| 2026-05-04 15:03 | 57.46976 | -156.51394 | 4900 ft | 318 kts | 248° |
| 2026-05-04 15:03 | 57.46253 | -156.55276 | 4896 ft | 318 kts | 248° |
| 2026-05-04 15:04 | 57.45520 | -156.59150 | 4894 ft | 318 kts | 248° |
| 2026-05-04 15:04 | 57.44786 | -156.63013 | 4902 ft | 314 kts | 247° |
| 2026-05-04 15:04 | 57.44064 | -156.66782 | 4895 ft | 306 kts | 247° |
| 2026-05-04 15:04 | 57.43362 | -156.70479 | 4875 ft | 301 kts | 247° |
| 2026-05-04 15:05 | 57.42664 | -156.74118 | 4896 ft | 297 kts | 248° |
| 2026-05-04 15:05 | 57.41983 | -156.77669 | 4892 ft | 294 kts | 248° |
| 2026-05-04 15:05 | 57.41296 | -156.81233 | 4885 ft | 292 kts | 248° |
| 2026-05-04 15:05 | 57.40613 | -156.84767 | 4875 ft | 290 kts | 247° |
| 2026-05-04 15:06 | 57.39712 | -156.88074 | 4775 ft | 287 kts | 237° |
| 2026-05-04 15:06 | 57.38729 | -156.91195 | 5122 ft | 272 kts | 234° |
| 2026-05-04 15:06 | 57.37716 | -156.94215 | 4985 ft | 282 kts | 236° |
| 2026-05-04 15:07 | 57.35768 | -157.00453 | 5171 ft | 280 kts | 240° |
| 2026-05-04 15:07 | 57.35039 | -157.03876 | 4989 ft | 291 kts | 251° |
| 2026-05-04 15:07 | 57.34515 | -157.07465 | 5113 ft | 284 kts | 250° |
| 2026-05-04 15:07 | 57.33874 | -157.10879 | 5221 ft | 280 kts | 244° |
| 2026-05-04 15:08 | 57.33049 | -157.14202 | 5059 ft | 286 kts | 241° |
| 2026-05-04 15:08 | 57.32200 | -157.17475 | 5060 ft | 286 kts | 242° |
| 2026-05-04 15:08 | 57.31349 | -157.20802 | 5060 ft | 286 kts | 242° |
| 2026-05-04 15:08 | 57.30499 | -157.24124 | 5060 ft | 285 kts | 242° |
| 2026-05-04 15:09 | 57.29653 | -157.27447 | 5051 ft | 285 kts | 242° |
| 2026-05-04 15:09 | 57.28807 | -157.30768 | 5046 ft | 285 kts | 242° |
| 2026-05-04 15:09 | 57.27965 | -157.34086 | 5044 ft | 285 kts | 242° |
| 2026-05-04 15:10 | 57.26285 | -157.40710 | 5043 ft | 284 kts | 242° |
| 2026-05-04 15:10 | 57.25444 | -157.44023 | 5043 ft | 284 kts | 242° |
| 2026-05-04 15:10 | 57.23749 | -157.50603 | 5042 ft | 283 kts | 242° |
| 2026-05-04 15:11 | 57.22901 | -157.53887 | 5026 ft | 283 kts | 241° |
| 2026-05-04 15:11 | 57.22053 | -157.57157 | 5025 ft | 283 kts | 241° |
| 2026-05-04 15:11 | 57.21198 | -157.60426 | 5025 ft | 282 kts | 241° |
| 2026-05-04 15:11 | 57.20345 | -157.63691 | 5033 ft | 282 kts | 241° |
| 2026-05-04 15:12 | 57.19491 | -157.66953 | 5033 ft | 282 kts | 241° |
| 2026-05-04 15:12 | 57.18636 | -157.70200 | 5031 ft | 282 kts | 241° |
| 2026-05-04 15:12 | 57.17779 | -157.73447 | 5029 ft | 282 kts | 241° |
| 2026-05-04 15:12 | 57.16931 | -157.76652 | 5029 ft | 281 kts | 241° |
| 2026-05-04 15:13 | 57.16072 | -157.79887 | 5030 ft | 281 kts | 241° |
| 2026-05-04 15:13 | 57.15210 | -157.83124 | 5029 ft | 281 kts | 240° |
| 2026-05-04 15:13 | 57.14346 | -157.86357 | 5028 ft | 281 kts | 240° |
| 2026-05-04 15:13 | 57.13484 | -157.89593 | 5028 ft | 281 kts | 240° |
| 2026-05-04 15:14 | 57.12618 | -157.92823 | 5025 ft | 281 kts | 240° |
| 2026-05-04 15:14 | 57.11752 | -157.96051 | 5036 ft | 281 kts | 240° |
| 2026-05-04 15:14 | 57.10883 | -157.99275 | 5037 ft | 281 kts | 240° |
| 2026-05-04 15:14 | 57.10010 | -158.02498 | 5054 ft | 281 kts | 240° |
| 2026-05-04 15:15 | 57.09136 | -158.05725 | 5059 ft | 282 kts | 240° |
| 2026-05-04 15:15 | 57.08259 | -158.08955 | 5060 ft | 283 kts | 240° |
| 2026-05-04 15:15 | 57.07375 | -158.12187 | 5060 ft | 283 kts | 240° |
| 2026-05-04 15:16 | 57.05606 | -158.18651 | 5061 ft | 283 kts | 240° |
| 2026-05-04 15:16 | 57.04729 | -158.21840 | 5061 ft | 283 kts | 240° |
| 2026-05-04 15:16 | 57.02949 | -158.28281 | 5061 ft | 283 kts | 239° |
| 2026-05-04 15:17 | 57.02051 | -158.31485 | 5054 ft | 282 kts | 240° |
| 2026-05-04 15:17 | 57.00265 | -158.37848 | 5055 ft | 280 kts | 240° |
| 2026-05-04 15:17 | 56.99373 | -158.41019 | 5054 ft | 279 kts | 240° |
| 2026-05-04 15:18 | 56.98480 | -158.44178 | 5050 ft | 279 kts | 240° |
| 2026-05-04 15:18 | 56.97587 | -158.47328 | 5050 ft | 278 kts | 240° |
| 2026-05-04 15:18 | 56.96692 | -158.50477 | 5049 ft | 278 kts | 240° |
| 2026-05-04 15:19 | 56.94916 | -158.56777 | 5046 ft | 278 kts | 240° |
| 2026-05-04 15:19 | 56.94035 | -158.59936 | 5046 ft | 278 kts | 240° |
| 2026-05-04 15:19 | 56.92817 | -158.66630 | 5024 ft | 278 kts | 249° |
| 2026-05-04 15:20 | 56.92089 | -158.69904 | 5049 ft | 277 kts | 242° |
| 2026-05-04 15:20 | 56.91183 | -158.73016 | 5052 ft | 277 kts | 238° |
| 2026-05-04 15:20 | 56.90210 | -158.76060 | 5054 ft | 277 kts | 237° |
| 2026-05-04 15:20 | 56.89215 | -158.79087 | 5055 ft | 278 kts | 236° |
| 2026-05-04 15:21 | 56.88207 | -158.82109 | 5055 ft | 278 kts | 236° |
| 2026-05-04 15:21 | 56.87197 | -158.85124 | 5057 ft | 278 kts | 236° |
| 2026-05-04 15:21 | 56.85163 | -158.91154 | 5055 ft | 279 kts | 236° |
| 2026-05-04 15:22 | 56.84144 | -158.94174 | 5056 ft | 279 kts | 236° |
| 2026-05-04 15:22 | 56.83136 | -158.97157 | 5051 ft | 279 kts | 236° |
| 2026-05-04 15:22 | 56.81093 | -159.03189 | 5051 ft | 279 kts | 236° |
| 2026-05-04 15:23 | 56.80069 | -159.06208 | 5050 ft | 279 kts | 236° |
| 2026-05-04 15:23 | 56.79047 | -159.09220 | 5051 ft | 279 kts | 236° |
| 2026-05-04 15:23 | 56.78026 | -159.12231 | 5051 ft | 279 kts | 236° |
| 2026-05-04 15:23 | 56.76993 | -159.15233 | 5038 ft | 280 kts | 236° |
| 2026-05-04 15:24 | 56.74868 | -159.21206 | 5038 ft | 281 kts | 236° |
| 2026-05-04 15:24 | 56.72712 | -159.27177 | 5051 ft | 282 kts | 236° |
| 2026-05-04 15:25 | 56.71623 | -159.30150 | 5051 ft | 283 kts | 236° |
| 2026-05-04 15:25 | 56.70526 | -159.33133 | 5057 ft | 283 kts | 236° |
| 2026-05-04 15:25 | 56.69431 | -159.36106 | 5060 ft | 283 kts | 236° |
| 2026-05-04 15:26 | 56.67248 | -159.42022 | 5059 ft | 284 kts | 236° |
| 2026-05-04 15:26 | 56.66147 | -159.45005 | 5058 ft | 284 kts | 236° |
| 2026-05-04 15:26 | 56.63946 | -159.50958 | 5064 ft | 284 kts | 235° |
| 2026-05-04 15:27 | 56.62844 | -159.53936 | 5060 ft | 284 kts | 236° |
| 2026-05-04 15:27 | 56.60641 | -159.59890 | 5059 ft | 284 kts | 236° |
| 2026-05-04 15:28 | 56.58438 | -159.65834 | 5059 ft | 284 kts | 236° |
| 2026-05-04 15:28 | 56.57332 | -159.68809 | 5064 ft | 284 kts | 236° |
| 2026-05-04 15:28 | 56.55125 | -159.74747 | 5065 ft | 284 kts | 236° |
| 2026-05-04 15:29 | 56.54022 | -159.77711 | 5072 ft | 283 kts | 236° |
| 2026-05-04 15:30 | 56.49528 | -159.89430 | 5067 ft | 283 kts | 235° |
| 2026-05-04 15:30 | 56.46198 | -159.98193 | 5066 ft | 281 kts | 237° |
| 2026-05-04 15:31 | 56.44091 | -160.04142 | 5048 ft | 282 kts | 239° |
| 2026-05-04 15:31 | 56.43040 | -160.07081 | 5049 ft | 282 kts | 239° |
| 2026-05-04 15:32 | 56.39827 | -160.16027 | 5045 ft | 282 kts | 239° |
| 2026-05-04 15:32 | 56.37691 | -160.21967 | 5048 ft | 281 kts | 239° |
| 2026-05-04 15:33 | 56.35567 | -160.27873 | 5043 ft | 280 kts | 240° |
| 2026-05-04 15:34 | 56.32462 | -160.36787 | 5052 ft | 279 kts | 241° |
| 2026-05-04 15:34 | 56.31429 | -160.39738 | 5053 ft | 279 kts | 241° |
| 2026-05-04 15:34 | 56.29358 | -160.45642 | 5052 ft | 278 kts | 241° |
| 2026-05-04 15:35 | 56.27287 | -160.51533 | 5054 ft | 278 kts | 241° |
| 2026-05-04 15:35 | 56.26257 | -160.54462 | 5052 ft | 277 kts | 241° |
| 2026-05-04 15:35 | 56.25228 | -160.57389 | 5052 ft | 276 kts | 241° |
| 2026-05-04 15:36 | 56.23204 | -160.63144 | 5046 ft | 273 kts | 241° |
| 2026-05-04 15:36 | 56.22189 | -160.66019 | 5039 ft | 272 kts | 241° |
| 2026-05-04 15:36 | 56.21176 | -160.68889 | 5047 ft | 271 kts | 241° |
| 2026-05-04 15:37 | 56.20163 | -160.71751 | 5051 ft | 271 kts | 241° |
| 2026-05-04 15:37 | 56.19154 | -160.74603 | 5050 ft | 271 kts | 241° |
| 2026-05-04 15:37 | 56.18144 | -160.77454 | 5050 ft | 270 kts | 241° |
| 2026-05-04 15:37 | 56.17136 | -160.80295 | 5042 ft | 270 kts | 241° |
| 2026-05-04 15:38 | 56.16128 | -160.83137 | 5046 ft | 269 kts | 241° |
| 2026-05-04 15:38 | 56.15111 | -160.85974 | 5017 ft | 270 kts | 242° |
| 2026-05-04 15:38 | 56.14071 | -160.88772 | 5026 ft | 270 kts | 241° |
| 2026-05-04 15:38 | 56.13020 | -160.91563 | 5018 ft | 270 kts | 241° |
| 2026-05-04 15:39 | 56.11964 | -160.94351 | 5021 ft | 271 kts | 241° |
| 2026-05-04 15:39 | 56.10900 | -160.97148 | 5019 ft | 272 kts | 241° |
| 2026-05-04 15:39 | 56.08765 | -161.02763 | 5027 ft | 272 kts | 241° |
| 2026-05-04 15:40 | 56.07697 | -161.05569 | 5023 ft | 272 kts | 241° |
| 2026-05-04 15:40 | 56.06643 | -161.08337 | 5027 ft | 272 kts | 241° |
| 2026-05-04 15:40 | 56.05576 | -161.11139 | 5029 ft | 272 kts | 241° |
| 2026-05-04 15:40 | 56.04507 | -161.13944 | 5025 ft | 273 kts | 241° |
| 2026-05-04 15:41 | 56.03455 | -161.16765 | 5026 ft | 273 kts | 242° |
| 2026-05-04 15:41 | 56.02422 | -161.19616 | 5029 ft | 273 kts | 243° |
| 2026-05-04 15:41 | 56.01395 | -161.22478 | 5028 ft | 274 kts | 243° |
| 2026-05-04 15:41 | 56.00366 | -161.25357 | 5033 ft | 274 kts | 243° |
| 2026-05-04 15:42 | 55.99337 | -161.28243 | 5031 ft | 275 kts | 243° |
| 2026-05-04 15:42 | 55.98320 | -161.31153 | 5035 ft | 276 kts | 244° |
| 2026-05-04 15:42 | 55.97340 | -161.34046 | 5040 ft | 276 kts | 244° |
| 2026-05-04 15:42 | 55.96352 | -161.36998 | 5046 ft | 278 kts | 244° |
| 2026-05-04 15:43 | 55.95358 | -161.39969 | 5054 ft | 279 kts | 245° |
| 2026-05-04 15:43 | 55.94362 | -161.42943 | 5060 ft | 280 kts | 245° |
| 2026-05-04 15:43 | 55.93362 | -161.45926 | 5058 ft | 281 kts | 245° |
| 2026-05-04 15:43 | 55.92357 | -161.48923 | 5060 ft | 282 kts | 244° |
| 2026-05-04 15:44 | 55.91350 | -161.51934 | 5063 ft | 283 kts | 245° |
| 2026-05-04 15:44 | 55.90343 | -161.54950 | 5067 ft | 284 kts | 245° |
| 2026-05-04 15:44 | 55.89675 | -161.56952 | 5067 ft | 284 kts | 245° |
| 2026-05-04 15:44 | 55.88664 | -161.59966 | 5064 ft | 283 kts | 245° |
| 2026-05-04 15:45 | 55.87649 | -161.62982 | 5062 ft | 284 kts | 245° |
| 2026-05-04 15:45 | 55.86635 | -161.66005 | 5050 ft | 284 kts | 245° |
| 2026-05-04 15:45 | 55.85635 | -161.69031 | 5054 ft | 283 kts | 244° |
| 2026-05-04 15:45 | 55.84651 | -161.72059 | 5052 ft | 282 kts | 244° |
| 2026-05-04 15:46 | 55.83677 | -161.75079 | 5047 ft | 280 kts | 244° |
| 2026-05-04 15:46 | 55.82709 | -161.78081 | 5046 ft | 279 kts | 245° |
| 2026-05-04 15:46 | 55.81744 | -161.81070 | 5045 ft | 278 kts | 244° |
| 2026-05-04 15:46 | 55.80784 | -161.84046 | 5049 ft | 277 kts | 245° |
| 2026-05-04 15:47 | 55.79837 | -161.86976 | 5051 ft | 277 kts | 245° |
| 2026-05-04 15:47 | 55.78876 | -161.89937 | 5050 ft | 276 kts | 244° |
| 2026-05-04 15:47 | 55.77917 | -161.92901 | 5047 ft | 276 kts | 245° |
| 2026-05-04 15:47 | 55.76963 | -161.95852 | 5048 ft | 276 kts | 244° |
| 2026-05-04 15:48 | 55.76012 | -161.98806 | 5058 ft | 275 kts | 245° |
| 2026-05-04 15:48 | 55.75065 | -162.01742 | 5055 ft | 273 kts | 244° |
| 2026-05-04 15:48 | 55.73180 | -162.07579 | 5048 ft | 272 kts | 244° |
| 2026-05-04 15:49 | 55.72242 | -162.10483 | 5044 ft | 272 kts | 244° |
| 2026-05-04 15:49 | 55.71302 | -162.13387 | 5048 ft | 271 kts | 244° |
| 2026-05-04 15:49 | 55.70362 | -162.16282 | 5046 ft | 271 kts | 244° |
| 2026-05-04 15:49 | 55.69426 | -162.19171 | 5050 ft | 270 kts | 244° |
| 2026-05-04 15:50 | 55.68491 | -162.22051 | 5051 ft | 269 kts | 244° |
| 2026-05-04 15:50 | 55.67556 | -162.24927 | 5043 ft | 269 kts | 244° |
| 2026-05-04 15:50 | 55.66624 | -162.27800 | 5056 ft | 269 kts | 244° |
| 2026-05-04 15:50 | 55.65697 | -162.30636 | 5060 ft | 269 kts | 244° |
| 2026-05-04 15:51 | 55.64762 | -162.33508 | 5060 ft | 269 kts | 244° |
| 2026-05-04 15:51 | 55.63829 | -162.36372 | 5056 ft | 269 kts | 244° |
| 2026-05-04 15:51 | 55.62891 | -162.39238 | 5063 ft | 269 kts | 244° |
| 2026-05-04 15:51 | 55.61957 | -162.42099 | 5055 ft | 268 kts | 244° |
| 2026-05-04 15:52 | 55.61021 | -162.44958 | 5054 ft | 268 kts | 244° |
| 2026-05-04 15:52 | 55.60087 | -162.47807 | 5056 ft | 268 kts | 244° |
| 2026-05-04 15:52 | 55.59153 | -162.50659 | 5053 ft | 267 kts | 244° |
| 2026-05-04 15:52 | 55.58214 | -162.53504 | 5062 ft | 268 kts | 244° |
| 2026-05-04 15:53 | 55.57264 | -162.56348 | 5058 ft | 269 kts | 244° |
| 2026-05-04 15:53 | 55.56309 | -162.59190 | 5070 ft | 269 kts | 244° |
| 2026-05-04 15:53 | 55.55353 | -162.62036 | 5070 ft | 270 kts | 244° |
| 2026-05-04 15:53 | 55.54391 | -162.64885 | 5068 ft | 270 kts | 244° |
| 2026-05-04 15:54 | 55.53429 | -162.67739 | 5075 ft | 271 kts | 244° |
| 2026-05-04 15:54 | 55.52464 | -162.70600 | 5075 ft | 272 kts | 244° |
| 2026-05-04 15:54 | 55.51495 | -162.73474 | 5072 ft | 273 kts | 244° |
| 2026-05-04 15:54 | 55.50523 | -162.76354 | 5077 ft | 274 kts | 244° |
| 2026-05-04 15:55 | 55.49558 | -162.79212 | 5079 ft | 274 kts | 244° |
| 2026-05-04 15:55 | 55.48581 | -162.82111 | 5077 ft | 275 kts | 244° |
| 2026-05-04 15:55 | 55.47600 | -162.85016 | 5085 ft | 276 kts | 244° |
| 2026-05-04 15:55 | 55.46617 | -162.87926 | 5082 ft | 277 kts | 244° |
| 2026-05-04 15:56 | 55.45629 | -162.90851 | 5084 ft | 278 kts | 244° |
| 2026-05-04 15:56 | 55.44638 | -162.93784 | 5083 ft | 279 kts | 244° |
| 2026-05-04 15:56 | 55.43646 | -162.96723 | 5092 ft | 279 kts | 244° |
| 2026-05-04 15:56 | 55.42650 | -162.99665 | 5089 ft | 280 kts | 244° |
| 2026-05-04 15:57 | 55.41652 | -163.02617 | 5091 ft | 281 kts | 244° |
| 2026-05-04 15:57 | 55.40649 | -163.05577 | 5092 ft | 282 kts | 244° |
| 2026-05-04 15:57 | 55.39649 | -163.08538 | 5094 ft | 282 kts | 244° |
| 2026-05-04 15:57 | 55.38644 | -163.11505 | 5094 ft | 282 kts | 244° |
| 2026-05-04 15:58 | 55.37685 | -163.14504 | 5096 ft | 280 kts | 249° |
| 2026-05-04 15:58 | 55.36869 | -163.17613 | 5084 ft | 279 kts | 250° |
| 2026-05-04 15:58 | 55.36110 | -163.20756 | 5089 ft | 279 kts | 251° |
| 2026-05-04 15:58 | 55.35366 | -163.23912 | 5089 ft | 280 kts | 252° |
| 2026-05-04 15:59 | 55.34625 | -163.27077 | 5091 ft | 280 kts | 252° |
| 2026-05-04 15:59 | 55.33878 | -163.30253 | 5092 ft | 282 kts | 251° |
| 2026-05-04 15:59 | 55.33113 | -163.33431 | 5093 ft | 283 kts | 251° |
| 2026-05-04 15:59 | 55.32342 | -163.36615 | 5095 ft | 284 kts | 251° |
| 2026-05-04 16:00 | 55.31564 | -163.39801 | 5096 ft | 284 kts | 250° |
| 2026-05-04 16:00 | 55.30766 | -163.42988 | 5096 ft | 285 kts | 250° |
| 2026-05-04 16:00 | 55.29961 | -163.46174 | 5111 ft | 286 kts | 250° |
| 2026-05-04 16:00 | 55.29136 | -163.49351 | 5111 ft | 286 kts | 249° |
| 2026-05-04 16:01 | 55.28297 | -163.52526 | 5109 ft | 287 kts | 249° |
| 2026-05-04 16:01 | 55.27458 | -163.55700 | 5110 ft | 287 kts | 249° |
| 2026-05-04 16:01 | 55.26628 | -163.58825 | 5110 ft | 287 kts | 249° |
| 2026-05-04 16:01 | 55.25784 | -163.62000 | 5111 ft | 287 kts | 249° |
| 2026-05-04 16:02 | 55.24944 | -163.65170 | 5111 ft | 287 kts | 249° |
| 2026-05-04 16:02 | 55.24098 | -163.68343 | 5110 ft | 287 kts | 249° |
| 2026-05-04 16:02 | 55.22410 | -163.74677 | 5136 ft | 287 kts | 249° |
| 2026-05-04 16:03 | 55.21570 | -163.77843 | 5134 ft | 286 kts | 249° |
| 2026-05-04 16:03 | 55.20743 | -163.81011 | 5134 ft | 286 kts | 250° |
| 2026-05-04 16:03 | 55.19918 | -163.84173 | 5133 ft | 285 kts | 250° |
| 2026-05-04 16:03 | 55.19101 | -163.87338 | 5107 ft | 285 kts | 250° |
| 2026-05-04 16:04 | 55.18302 | -163.90509 | 5105 ft | 285 kts | 250° |
| 2026-05-04 16:04 | 55.16697 | -163.96855 | 5106 ft | 285 kts | 250° |
| 2026-05-04 16:04 | 55.15895 | -164.00028 | 5115 ft | 286 kts | 250° |
| 2026-05-04 16:05 | 55.15086 | -164.03201 | 5122 ft | 286 kts | 249° |
| 2026-05-04 16:05 | 55.14285 | -164.06375 | 5122 ft | 285 kts | 250° |
| 2026-05-04 16:05 | 55.12668 | -164.12734 | 5124 ft | 285 kts | 250° |
| 2026-05-04 16:06 | 55.11872 | -164.15906 | 5121 ft | 285 kts | 250° |
| 2026-05-04 16:06 | 55.09732 | -164.24353 | 5122 ft | 285 kts | 250° |
| 2026-05-04 16:07 | 55.08650 | -164.28587 | 5128 ft | 286 kts | 249° |
| 2026-05-04 16:07 | 55.06233 | -164.38064 | 5130 ft | 286 kts | 249° |
| 2026-05-04 16:08 | 55.05429 | -164.41236 | 5130 ft | 286 kts | 250° |
| 2026-05-04 16:08 | 55.02946 | -164.50707 | 5140 ft | 286 kts | 249° |
| 2026-05-04 16:09 | 55.01284 | -164.56992 | 5122 ft | 286 kts | 249° |
| 2026-05-04 16:09 | 54.99599 | -164.63276 | 5120 ft | 286 kts | 248° |
| 2026-05-04 16:10 | 54.97928 | -164.69515 | 5120 ft | 286 kts | 248° |
| 2026-05-04 16:11 | 54.95401 | -164.78917 | 5122 ft | 286 kts | 248° |
| 2026-05-04 16:11 | 54.94557 | -164.82051 | 5132 ft | 286 kts | 248° |
| 2026-05-04 16:12 | 54.91944 | -164.91391 | 5131 ft | 286 kts | 248° |
| 2026-05-04 16:12 | 54.89268 | -165.00680 | 5132 ft | 287 kts | 246° |
| 2026-05-04 16:13 | 54.87239 | -165.06682 | 5139 ft | 289 kts | 239° |
| 2026-05-04 16:13 | 54.84864 | -165.12322 | 5148 ft | 290 kts | 235° |
| 2026-05-04 16:14 | 54.82376 | -165.17822 | 5145 ft | 290 kts | 234° |
| 2026-05-04 16:14 | 54.79867 | -165.23295 | 5120 ft | 290 kts | 234° |
| 2026-05-04 16:15 | 54.76088 | -165.31512 | 5120 ft | 291 kts | 234° |
| 2026-05-04 16:16 | 54.73568 | -165.36991 | 5134 ft | 291 kts | 234° |
| 2026-05-04 16:16 | 54.69782 | -165.45206 | 5130 ft | 291 kts | 234° |
| 2026-05-04 16:17 | 54.67255 | -165.50674 | 5133 ft | 291 kts | 234° |
| 2026-05-04 16:18 | 54.63509 | -165.58865 | 5132 ft | 291 kts | 235° |
| 2026-05-04 16:18 | 54.62264 | -165.61614 | 5131 ft | 291 kts | 235° |
| 2026-05-04 16:19 | 54.58534 | -165.69863 | 5144 ft | 291 kts | 235° |
| 2026-05-04 16:19 | 54.56041 | -165.75363 | 5144 ft | 291 kts | 235° |
| 2026-05-04 16:20 | 54.52319 | -165.83620 | 5144 ft | 291 kts | 236° |
| 2026-05-04 16:20 | 54.49879 | -165.89165 | 5143 ft | 290 kts | 236° |
| 2026-05-04 16:21 | 54.46285 | -165.97548 | 5132 ft | 290 kts | 237° |
| 2026-05-04 16:22 | 54.43909 | -166.03154 | 5140 ft | 290 kts | 237° |
| 2026-05-04 16:22 | 54.40346 | -166.11557 | 5138 ft | 290 kts | 237° |
| 2026-05-04 16:23 | 54.36797 | -166.19900 | 5143 ft | 289 kts | 237° |
| 2026-05-04 16:24 | 54.32038 | -166.31044 | 5150 ft | 290 kts | 236° |
| 2026-05-04 16:25 | 54.29657 | -166.36618 | 5153 ft | 290 kts | 237° |
| 2026-05-04 16:26 | 54.25142 | -166.48026 | 5149 ft | 289 kts | 240° |
| 2026-05-04 16:26 | 54.22304 | -166.56993 | 5163 ft | 283 kts | 252° |
| 2026-05-04 16:27 | 54.20908 | -166.63269 | 5161 ft | 282 kts | 255° |
| 2026-05-04 16:28 | 54.19305 | -166.71756 | 5141 ft | 283 kts | 257° |
| 2026-05-04 16:28 | 54.17485 | -166.82489 | 5149 ft | 283 kts | 258° |
| 2026-05-04 16:29 | 54.15574 | -166.94387 | 5150 ft | 284 kts | 258° |
| 2026-05-04 16:30 | 54.14008 | -167.04144 | 5155 ft | 284 kts | 258° |
| 2026-05-04 16:31 | 54.12959 | -167.10656 | 5153 ft | 284 kts | 258° |
| 2026-05-04 16:31 | 54.11381 | -167.20407 | 5153 ft | 284 kts | 258° |
| 2026-05-04 16:32 | 54.09809 | -167.30109 | 5137 ft | 285 kts | 258° |
| 2026-05-04 16:33 | 54.08751 | -167.36624 | 5143 ft | 285 kts | 258° |
| 2026-05-04 16:33 | 54.07692 | -167.43093 | 5144 ft | 286 kts | 258° |
| 2026-05-04 16:34 | 54.06614 | -167.49668 | 5149 ft | 286 kts | 258° |
| 2026-05-04 16:34 | 54.06078 | -167.52925 | 5149 ft | 286 kts | 258° |
| 2026-05-04 16:35 | 54.04464 | -167.62718 | 5149 ft | 286 kts | 258° |
| 2026-05-04 16:35 | 54.02852 | -167.72504 | 5157 ft | 287 kts | 258° |
| 2026-05-04 16:36 | 54.02313 | -167.75768 | 5156 ft | 286 kts | 258° |
| 2026-05-04 16:36 | 54.01238 | -167.82292 | 5139 ft | 286 kts | 258° |
| 2026-05-04 16:37 | 54.00182 | -167.88765 | 5138 ft | 286 kts | 258° |
| 2026-05-04 16:37 | 53.99654 | -167.92023 | 5137 ft | 286 kts | 258° |
| 2026-05-04 16:37 | 53.98592 | -167.98536 | 5148 ft | 286 kts | 258° |
| 2026-05-04 16:38 | 53.97530 | -168.05047 | 5145 ft | 286 kts | 258° |
| 2026-05-04 16:39 | 53.95927 | -168.14806 | 5146 ft | 286 kts | 258° |
| 2026-05-04 16:39 | 53.94855 | -168.21306 | 5154 ft | 286 kts | 258° |
| 2026-05-04 16:40 | 53.93783 | -168.27813 | 5151 ft | 286 kts | 258° |
| 2026-05-04 16:40 | 53.92712 | -168.34318 | 5154 ft | 286 kts | 258° |
| 2026-05-04 16:41 | 53.91649 | -168.40818 | 5141 ft | 286 kts | 258° |
| 2026-05-04 16:41 | 53.90075 | -168.50582 | 5142 ft | 286 kts | 258° |
| 2026-05-04 16:42 | 53.88502 | -168.60336 | 5139 ft | 286 kts | 258° |
| 2026-05-04 16:43 | 53.87447 | -168.66857 | 5142 ft | 286 kts | 258° |
| 2026-05-04 16:43 | 53.86401 | -168.73312 | 5142 ft | 286 kts | 258° |
| 2026-05-04 16:43 | 53.85876 | -168.76563 | 5142 ft | 286 kts | 258° |
| 2026-05-04 16:44 | 53.83762 | -168.89599 | 5148 ft | 287 kts | 258° |
| 2026-05-04 16:45 | 53.82704 | -168.96103 | 5146 ft | 287 kts | 258° |
| 2026-05-04 16:46 | 53.81111 | -169.05852 | 5145 ft | 287 kts | 257° |
| 2026-05-04 16:46 | 53.80046 | -169.12338 | 5150 ft | 286 kts | 257° |
| 2026-05-04 16:47 | 53.78977 | -169.18828 | 5148 ft | 286 kts | 257° |
| 2026-05-04 16:47 | 53.77908 | -169.25322 | 5148 ft | 286 kts | 257° |
| 2026-05-04 16:48 | 53.76312 | -169.35019 | 5154 ft | 287 kts | 257° |
| 2026-05-04 16:48 | 53.75781 | -169.38266 | 5153 ft | 287 kts | 257° |
| 2026-05-04 16:49 | 53.74718 | -169.44774 | 5154 ft | 287 kts | 257° |
| 2026-05-04 16:49 | 53.73654 | -169.51282 | 5155 ft | 287 kts | 257° |
| 2026-05-04 16:50 | 53.72590 | -169.57789 | 5151 ft | 287 kts | 257° |
| 2026-05-04 16:50 | 53.71510 | -169.64285 | 5151 ft | 287 kts | 257° |
| 2026-05-04 16:51 | 53.70431 | -169.70783 | 5150 ft | 288 kts | 257° |
| 2026-05-04 16:51 | 53.69885 | -169.74030 | 5151 ft | 288 kts | 257° |
| 2026-05-04 16:51 | 53.68794 | -169.80528 | 5154 ft | 288 kts | 257° |
| 2026-05-04 16:52 | 53.67698 | -169.87023 | 5157 ft | 288 kts | 257° |
| 2026-05-04 16:52 | 53.67162 | -169.90217 | 5157 ft | 288 kts | 257° |
| 2026-05-04 16:53 | 53.66058 | -169.96741 | 5160 ft | 288 kts | 257° |
| 2026-05-04 16:53 | 53.64409 | -170.06479 | 5162 ft | 288 kts | 257° |
| 2026-05-04 16:54 | 53.63859 | -170.09729 | 5150 ft | 288 kts | 257° |
| 2026-05-04 16:55 | 53.61689 | -170.22684 | 5147 ft | 288 kts | 257° |
| 2026-05-04 16:55 | 53.60602 | -170.29169 | 5146 ft | 288 kts | 257° |
| 2026-05-04 16:56 | 53.59514 | -170.35673 | 5145 ft | 288 kts | 257° |
| 2026-05-04 16:56 | 53.57880 | -170.45378 | 5151 ft | 287 kts | 257° |
| 2026-05-04 16:57 | 53.57330 | -170.48613 | 5151 ft | 287 kts | 257° |
| 2026-05-04 16:57 | 53.56242 | -170.55043 | 5147 ft | 287 kts | 257° |
| 2026-05-04 16:58 | 53.54600 | -170.64744 | 5147 ft | 287 kts | 257° |
| 2026-05-04 16:58 | 53.54054 | -170.67975 | 5138 ft | 287 kts | 257° |
| 2026-05-04 16:59 | 53.52971 | -170.74428 | 5150 ft | 287 kts | 257° |
| 2026-05-04 17:00 | 53.50803 | -170.87378 | 5144 ft | 287 kts | 257° |
| 2026-05-04 17:00 | 53.49165 | -170.97073 | 5143 ft | 287 kts | 257° |
| 2026-05-04 17:01 | 53.48069 | -171.03530 | 5143 ft | 287 kts | 257° |
| 2026-05-04 17:01 | 53.46974 | -171.09986 | 5150 ft | 287 kts | 257° |
| 2026-05-04 17:02 | 53.45878 | -171.16401 | 5150 ft | 287 kts | 257° |
| 2026-05-04 17:02 | 53.44781 | -171.22850 | 5135 ft | 287 kts | 257° |
| 2026-05-04 17:03 | 53.44237 | -171.26076 | 5136 ft | 287 kts | 257° |
| 2026-05-04 17:03 | 53.43697 | -171.29306 | 5142 ft | 287 kts | 257° |
| 2026-05-04 17:03 | 53.42622 | -171.35757 | 5143 ft | 287 kts | 257° |
| 2026-05-04 17:04 | 53.41555 | -171.42214 | 5146 ft | 287 kts | 257° |
| 2026-05-04 17:04 | 53.40476 | -171.48678 | 5154 ft | 288 kts | 256° |
| 2026-05-04 17:05 | 53.39407 | -171.55104 | 5148 ft | 288 kts | 257° |
| 2026-05-04 17:05 | 53.38330 | -171.61556 | 5154 ft | 287 kts | 257° |
| 2026-05-04 17:06 | 53.37247 | -171.67998 | 5152 ft | 287 kts | 256° |
| 2026-05-04 17:06 | 53.36709 | -171.71213 | 5152 ft | 287 kts | 256° |
| 2026-05-04 17:07 | 53.35631 | -171.77648 | 5137 ft | 287 kts | 256° |
| 2026-05-04 17:07 | 53.35276 | -171.79782 | 5138 ft | 287 kts | 256° |
| 2026-05-04 17:07 | 53.34563 | -171.84089 | 5139 ft | 287 kts | 256° |
| 2026-05-04 17:07 | 53.34027 | -171.87314 | 5138 ft | 287 kts | 256° |
| 2026-05-04 17:08 | 53.33493 | -171.90518 | 5136 ft | 287 kts | 256° |
| 2026-05-04 17:08 | 53.32433 | -171.96934 | 5136 ft | 287 kts | 256° |
| 2026-05-04 17:08 | 53.31898 | -172.00155 | 5146 ft | 287 kts | 256° |
| 2026-05-04 17:09 | 53.31362 | -172.03374 | 5151 ft | 287 kts | 256° |
| 2026-05-04 17:09 | 53.30827 | -172.06587 | 5142 ft | 287 kts | 256° |
| 2026-05-04 17:09 | 53.30288 | -172.09809 | 5141 ft | 287 kts | 256° |
| 2026-05-04 17:10 | 53.29211 | -172.16244 | 5141 ft | 287 kts | 256° |
| 2026-05-04 17:10 | 53.27595 | -172.25881 | 5137 ft | 287 kts | 256° |
| 2026-05-04 17:11 | 53.27057 | -172.29094 | 5136 ft | 287 kts | 256° |
| 2026-05-04 17:11 | 53.26522 | -172.32282 | 5125 ft | 287 kts | 256° |
| 2026-05-04 17:11 | 53.25463 | -172.38720 | 5139 ft | 287 kts | 256° |
| 2026-05-04 17:12 | 53.24935 | -172.41930 | 5142 ft | 287 kts | 256° |
| 2026-05-04 17:12 | 53.23874 | -172.48370 | 5150 ft | 288 kts | 256° |
| 2026-05-04 17:13 | 53.22459 | -172.56951 | 5145 ft | 288 kts | 256° |
| 2026-05-04 17:14 | 53.20688 | -172.67653 | 5145 ft | 288 kts | 256° |
| 2026-05-04 17:14 | 53.20334 | -172.69792 | 5150 ft | 287 kts | 256° |
| 2026-05-04 17:14 | 53.19084 | -172.77282 | 5144 ft | 288 kts | 256° |
| 2026-05-04 17:15 | 53.18722 | -172.79454 | 5154 ft | 288 kts | 256° |
| 2026-05-04 17:15 | 53.17648 | -172.85883 | 5133 ft | 288 kts | 256° |
| 2026-05-04 17:16 | 53.16590 | -172.92312 | 5143 ft | 288 kts | 256° |
| 2026-05-04 17:16 | 53.15009 | -173.01933 | 5149 ft | 288 kts | 256° |
| 2026-05-04 17:17 | 53.14482 | -173.05144 | 5126 ft | 288 kts | 256° |
| 2026-05-04 17:17 | 53.12886 | -173.14823 | 5132 ft | 288 kts | 256° |
| 2026-05-04 17:18 | 53.12353 | -173.18034 | 5127 ft | 288 kts | 256° |
| 2026-05-04 17:18 | 53.11291 | -173.24419 | 5130 ft | 287 kts | 256° |
| 2026-05-04 17:19 | 53.10224 | -173.30832 | 5135 ft | 287 kts | 256° |
| 2026-05-04 17:19 | 53.09160 | -173.37240 | 5142 ft | 287 kts | 256° |
| 2026-05-04 17:20 | 53.08095 | -173.43661 | 5133 ft | 288 kts | 256° |
| 2026-05-04 17:20 | 53.07030 | -173.50104 | 5134 ft | 288 kts | 256° |
| 2026-05-04 17:20 | 53.06500 | -173.53322 | 5135 ft | 289 kts | 256° |
| 2026-05-04 17:21 | 53.05442 | -173.59752 | 5134 ft | 289 kts | 256° |
| 2026-05-04 17:21 | 53.04381 | -173.66151 | 5143 ft | 289 kts | 256° |
| 2026-05-04 17:22 | 53.03850 | -173.69362 | 5143 ft | 288 kts | 256° |
| 2026-05-04 17:22 | 53.03315 | -173.72580 | 5134 ft | 289 kts | 256° |
| 2026-05-04 17:23 | 53.01710 | -173.82221 | 5134 ft | 289 kts | 256° |
| 2026-05-04 17:23 | 53.01174 | -173.85429 | 5135 ft | 289 kts | 256° |
| 2026-05-04 17:23 | 53.00103 | -173.91876 | 5133 ft | 288 kts | 255° |
| 2026-05-04 17:24 | 52.99573 | -173.95083 | 5122 ft | 289 kts | 255° |
| 2026-05-04 17:24 | 52.97981 | -174.04730 | 5121 ft | 289 kts | 256° |
| 2026-05-04 17:25 | 52.97450 | -174.07952 | 5129 ft | 289 kts | 255° |
| 2026-05-04 17:25 | 52.96394 | -174.14346 | 5124 ft | 289 kts | 256° |
| 2026-05-04 17:26 | 52.95327 | -174.20770 | 5131 ft | 289 kts | 255° |
| 2026-05-04 17:26 | 52.93720 | -174.30406 | 5127 ft | 289 kts | 255° |
| 2026-05-04 17:27 | 52.92645 | -174.36826 | 5128 ft | 289 kts | 255° |
| 2026-05-04 17:27 | 52.91567 | -174.43243 | 5132 ft | 289 kts | 255° |
| 2026-05-04 17:28 | 52.90485 | -174.49670 | 5123 ft | 289 kts | 255° |
| 2026-05-04 17:29 | 52.88874 | -174.59263 | 5125 ft | 290 kts | 255° |
| 2026-05-04 17:29 | 52.87257 | -174.68905 | 5138 ft | 290 kts | 255° |
| 2026-05-04 17:30 | 52.85639 | -174.78526 | 5138 ft | 290 kts | 255° |
| 2026-05-04 17:31 | 52.84552 | -174.84956 | 5134 ft | 290 kts | 255° |
| 2026-05-04 17:31 | 52.82926 | -174.94592 | 5134 ft | 290 kts | 255° |
| 2026-05-04 17:32 | 52.81849 | -175.01015 | 5137 ft | 290 kts | 255° |
| 2026-05-04 17:33 | 52.80239 | -175.10629 | 5136 ft | 291 kts | 255° |
| 2026-05-04 17:33 | 52.79690 | -175.13891 | 5135 ft | 291 kts | 255° |
| 2026-05-04 17:34 | 52.78068 | -175.23513 | 5133 ft | 291 kts | 255° |
| 2026-05-04 17:34 | 52.77523 | -175.26734 | 5135 ft | 291 kts | 255° |
| 2026-05-04 17:35 | 52.75887 | -175.36387 | 5128 ft | 291 kts | 255° |
| 2026-05-04 17:35 | 52.74794 | -175.42812 | 5127 ft | 291 kts | 255° |
| 2026-05-04 17:35 | 52.74248 | -175.46023 | 5134 ft | 291 kts | 255° |
| 2026-05-04 17:36 | 52.73704 | -175.49228 | 5137 ft | 290 kts | 255° |
| 2026-05-04 17:36 | 52.73170 | -175.52409 | 5131 ft | 291 kts | 255° |
| 2026-05-04 17:36 | 52.72628 | -175.55631 | 5124 ft | 291 kts | 255° |
| 2026-05-04 17:36 | 52.72089 | -175.58849 | 5138 ft | 291 kts | 255° |
| 2026-05-04 17:37 | 52.71552 | -175.62062 | 5128 ft | 291 kts | 255° |
| 2026-05-04 17:37 | 52.71011 | -175.65285 | 5142 ft | 291 kts | 255° |
| 2026-05-04 17:37 | 52.70472 | -175.68502 | 5128 ft | 291 kts | 255° |
| 2026-05-04 17:37 | 52.69933 | -175.71719 | 5135 ft | 291 kts | 255° |
| 2026-05-04 17:38 | 52.69391 | -175.74932 | 5129 ft | 291 kts | 255° |
| 2026-05-04 17:38 | 52.68849 | -175.78149 | 5139 ft | 291 kts | 255° |
| 2026-05-04 17:38 | 52.68313 | -175.81324 | 5138 ft | 291 kts | 255° |
| 2026-05-04 17:38 | 52.67771 | -175.84538 | 5143 ft | 291 kts | 255° |
| 2026-05-04 17:39 | 52.66688 | -175.90952 | 5142 ft | 291 kts | 255° |
| 2026-05-04 17:39 | 52.66140 | -175.94203 | 5141 ft | 291 kts | 255° |
| 2026-05-04 17:39 | 52.65593 | -175.97416 | 5139 ft | 291 kts | 255° |
| 2026-05-04 17:40 | 52.65049 | -176.00636 | 5134 ft | 291 kts | 255° |
| 2026-05-04 17:40 | 52.64509 | -176.03855 | 5128 ft | 291 kts | 255° |
| 2026-05-04 17:40 | 52.63978 | -176.07037 | 5127 ft | 292 kts | 255° |
| 2026-05-04 17:40 | 52.63442 | -176.10261 | 5128 ft | 292 kts | 255° |
| 2026-05-04 17:41 | 52.62905 | -176.13487 | 5141 ft | 292 kts | 255° |
| 2026-05-04 17:41 | 52.62370 | -176.16705 | 5142 ft | 292 kts | 255° |
| 2026-05-04 17:41 | 52.61832 | -176.19939 | 5128 ft | 293 kts | 255° |
| 2026-05-04 17:41 | 52.61294 | -176.23171 | 5130 ft | 292 kts | 254° |
| 2026-05-04 17:42 | 52.60757 | -176.26396 | 5132 ft | 292 kts | 255° |
| 2026-05-04 17:42 | 52.60218 | -176.29623 | 5124 ft | 292 kts | 255° |
| 2026-05-04 17:42 | 52.59682 | -176.32839 | 5127 ft | 292 kts | 255° |
| 2026-05-04 17:42 | 52.59143 | -176.36063 | 5126 ft | 292 kts | 255° |
| 2026-05-04 17:43 | 52.58603 | -176.39285 | 5133 ft | 293 kts | 255° |
| 2026-05-04 17:43 | 52.58060 | -176.42508 | 5126 ft | 292 kts | 255° |
| 2026-05-04 17:43 | 52.57517 | -176.45728 | 5134 ft | 292 kts | 254° |
| 2026-05-04 17:43 | 52.56975 | -176.48945 | 5128 ft | 292 kts | 255° |
| 2026-05-04 17:44 | 52.56430 | -176.52163 | 5124 ft | 292 kts | 254° |
| 2026-05-04 17:44 | 52.55889 | -176.55380 | 5132 ft | 292 kts | 254° |
| 2026-05-04 17:44 | 52.55349 | -176.58603 | 5125 ft | 292 kts | 255° |
| 2026-05-04 17:44 | 52.54807 | -176.61824 | 5125 ft | 293 kts | 254° |
| 2026-05-04 17:45 | 52.54269 | -176.65045 | 5127 ft | 292 kts | 255° |
| 2026-05-04 17:45 | 52.53728 | -176.68264 | 5135 ft | 292 kts | 254° |
| 2026-05-04 17:45 | 52.53188 | -176.71489 | 5125 ft | 293 kts | 254° |
| 2026-05-04 17:45 | 52.52650 | -176.74689 | 5120 ft | 293 kts | 254° |
| 2026-05-04 17:46 | 52.52109 | -176.77914 | 5121 ft | 293 kts | 254° |
| 2026-05-04 17:46 | 52.51569 | -176.81139 | 5123 ft | 293 kts | 254° |
| 2026-05-04 17:46 | 52.51026 | -176.84369 | 5125 ft | 293 kts | 254° |
| 2026-05-04 17:46 | 52.50485 | -176.87590 | 5120 ft | 292 kts | 254° |
| 2026-05-04 17:47 | 52.49949 | -176.90768 | 5122 ft | 292 kts | 254° |
| 2026-05-04 17:47 | 52.49407 | -176.93987 | 5120 ft | 293 kts | 254° |
| 2026-05-04 17:47 | 52.48866 | -176.97204 | 5130 ft | 292 kts | 254° |
| 2026-05-04 17:47 | 52.48324 | -177.00414 | 5138 ft | 292 kts | 254° |
| 2026-05-04 17:48 | 52.47783 | -177.03633 | 5138 ft | 293 kts | 254° |
| 2026-05-04 17:48 | 52.47243 | -177.06861 | 5133 ft | 293 kts | 254° |
| 2026-05-04 17:48 | 52.46703 | -177.10085 | 5136 ft | 293 kts | 254° |
| 2026-05-04 17:48 | 52.46162 | -177.13316 | 5133 ft | 294 kts | 254° |
| 2026-05-04 17:49 | 52.45619 | -177.16544 | 5132 ft | 294 kts | 254° |
| 2026-05-04 17:49 | 52.45077 | -177.19769 | 5140 ft | 294 kts | 254° |
| 2026-05-04 17:49 | 52.44534 | -177.22996 | 5133 ft | 294 kts | 254° |
| 2026-05-04 17:49 | 52.43989 | -177.26234 | 5125 ft | 294 kts | 254° |
| 2026-05-04 17:50 | 52.43446 | -177.29463 | 5129 ft | 294 kts | 254° |
| 2026-05-04 17:50 | 52.42900 | -177.32690 | 5127 ft | 294 kts | 254° |
| 2026-05-04 17:50 | 52.42356 | -177.35918 | 5134 ft | 294 kts | 254° |
| 2026-05-04 17:50 | 52.41815 | -177.39108 | 5129 ft | 294 kts | 254° |
| 2026-05-04 17:51 | 52.41270 | -177.42334 | 5134 ft | 294 kts | 254° |
| 2026-05-04 17:51 | 52.40722 | -177.45559 | 5133 ft | 294 kts | 254° |
| 2026-05-04 17:51 | 52.40175 | -177.48784 | 5135 ft | 294 kts | 254° |
| 2026-05-04 17:51 | 52.39628 | -177.52012 | 5136 ft | 294 kts | 254° |
| 2026-05-04 17:52 | 52.39081 | -177.55242 | 5149 ft | 294 kts | 254° |
| 2026-05-04 17:52 | 52.38537 | -177.58481 | 5135 ft | 294 kts | 254° |
| 2026-05-04 17:52 | 52.37993 | -177.61707 | 5136 ft | 294 kts | 254° |
| 2026-05-04 17:52 | 52.37450 | -177.64936 | 5147 ft | 294 kts | 254° |
| 2026-05-04 17:53 | 52.36904 | -177.68169 | 5135 ft | 294 kts | 254° |
| 2026-05-04 17:53 | 52.36358 | -177.71396 | 5137 ft | 294 kts | 254° |
| 2026-05-04 17:53 | 52.35813 | -177.74621 | 5135 ft | 294 kts | 254° |
| 2026-05-04 17:53 | 52.35273 | -177.77814 | 5134 ft | 294 kts | 254° |
| 2026-05-04 17:54 | 52.34727 | -177.81038 | 5143 ft | 294 kts | 254° |
| 2026-05-04 17:54 | 52.34179 | -177.84266 | 5136 ft | 294 kts | 254° |
| 2026-05-04 17:54 | 52.33630 | -177.87499 | 5131 ft | 295 kts | 254° |
| 2026-05-04 17:54 | 52.33083 | -177.90729 | 5133 ft | 294 kts | 254° |
| 2026-05-04 17:55 | 52.32532 | -177.93967 | 5141 ft | 294 kts | 254° |
| 2026-05-04 17:55 | 52.31986 | -177.97189 | 5130 ft | 295 kts | 254° |
| 2026-05-04 17:55 | 52.31436 | -178.00414 | 5136 ft | 294 kts | 254° |
| 2026-05-04 17:55 | 52.30894 | -178.03600 | 5117 ft | 294 kts | 253° |
| 2026-05-04 17:56 | 52.30348 | -178.06830 | 5115 ft | 295 kts | 254° |
| 2026-05-04 17:56 | 52.29801 | -178.10063 | 5122 ft | 295 kts | 253° |
| 2026-05-04 17:56 | 52.29255 | -178.13298 | 5128 ft | 295 kts | 254° |
| 2026-05-04 17:56 | 52.28709 | -178.16530 | 5126 ft | 295 kts | 253° |
| 2026-05-04 17:57 | 52.28162 | -178.19766 | 5123 ft | 296 kts | 254° |
| 2026-05-04 17:57 | 52.27611 | -178.23000 | 5123 ft | 295 kts | 254° |
| 2026-05-04 17:57 | 52.27061 | -178.26223 | 5133 ft | 295 kts | 253° |
| 2026-05-04 17:57 | 52.26512 | -178.29453 | 5131 ft | 295 kts | 254° |
| 2026-05-04 17:58 | 52.25962 | -178.32680 | 5134 ft | 295 kts | 254° |
| 2026-05-04 17:58 | 52.25412 | -178.35903 | 5141 ft | 295 kts | 253° |
| 2026-05-04 17:58 | 52.24862 | -178.39135 | 5137 ft | 295 kts | 253° |
| 2026-05-04 17:58 | 52.24312 | -178.42361 | 5140 ft | 295 kts | 253° |
| 2026-05-04 17:59 | 52.23768 | -178.45545 | 5133 ft | 295 kts | 253° |
| 2026-05-04 17:59 | 52.23218 | -178.48766 | 5132 ft | 295 kts | 253° |
| 2026-05-04 17:59 | 52.22117 | -178.55216 | 5140 ft | 294 kts | 253° |
| 2026-05-04 18:00 | 52.21569 | -178.58437 | 5138 ft | 295 kts | 253° |
| 2026-05-04 18:00 | 52.21021 | -178.61659 | 5136 ft | 295 kts | 253° |
| 2026-05-04 18:00 | 52.20471 | -178.64882 | 5138 ft | 294 kts | 253° |
| 2026-05-04 18:00 | 52.20107 | -178.67013 | 5129 ft | 294 kts | 253° |
| 2026-05-04 18:01 | 52.19557 | -178.70231 | 5123 ft | 295 kts | 253° |
| 2026-05-04 18:01 | 52.19008 | -178.73457 | 5127 ft | 295 kts | 253° |
| 2026-05-04 18:01 | 52.18453 | -178.76698 | 5126 ft | 295 kts | 253° |
| 2026-05-04 18:02 | 52.17363 | -178.83094 | 5124 ft | 295 kts | 253° |
| 2026-05-04 18:02 | 52.16808 | -178.86312 | 5119 ft | 295 kts | 253° |
| 2026-05-04 18:02 | 52.16256 | -178.89526 | 5128 ft | 295 kts | 253° |
| 2026-05-04 18:02 | 52.15704 | -178.92743 | 5117 ft | 295 kts | 253° |
| 2026-05-04 18:03 | 52.15149 | -178.95957 | 5132 ft | 294 kts | 253° |
| 2026-05-04 18:03 | 52.14594 | -178.99166 | 5118 ft | 294 kts | 253° |
| 2026-05-04 18:03 | 52.14039 | -179.02379 | 5120 ft | 295 kts | 253° |
| 2026-05-04 18:03 | 52.13486 | -179.05591 | 5114 ft | 294 kts | 253° |
| 2026-05-04 18:04 | 52.12936 | -179.08792 | 5113 ft | 294 kts | 253° |
| 2026-05-04 18:04 | 52.12388 | -179.11997 | 5110 ft | 294 kts | 253° |
| 2026-05-04 18:04 | 52.11296 | -179.18377 | 5113 ft | 293 kts | 253° |
| 2026-05-04 18:05 | 52.10748 | -179.21569 | 5113 ft | 293 kts | 253° |
| 2026-05-04 18:05 | 52.10199 | -179.24762 | 5115 ft | 293 kts | 253° |
| 2026-05-04 18:05 | 52.09648 | -179.27951 | 5122 ft | 293 kts | 253° |
| 2026-05-04 18:05 | 52.09097 | -179.31143 | 5114 ft | 293 kts | 253° |
| 2026-05-04 18:06 | 52.07998 | -179.37522 | 5107 ft | 293 kts | 253° |
| 2026-05-04 18:06 | 52.07447 | -179.40706 | 5107 ft | 293 kts | 253° |
| 2026-05-04 18:06 | 52.06897 | -179.43899 | 5117 ft | 293 kts | 253° |
| 2026-05-04 18:07 | 52.06344 | -179.47084 | 5106 ft | 292 kts | 253° |
| 2026-05-04 18:07 | 52.05791 | -179.50266 | 5107 ft | 292 kts | 253° |
| 2026-05-04 18:07 | 52.05240 | -179.53447 | 5112 ft | 293 kts | 253° |
| 2026-05-04 18:07 | 52.04694 | -179.56605 | 5114 ft | 293 kts | 253° |
| 2026-05-04 18:08 | 52.04139 | -179.59782 | 5129 ft | 292 kts | 253° |
| 2026-05-04 18:08 | 52.03587 | -179.62958 | 5144 ft | 292 kts | 253° |
| 2026-05-04 18:08 | 52.03038 | -179.66122 | 5134 ft | 292 kts | 253° |
| 2026-05-04 18:08 | 52.02486 | -179.69293 | 5127 ft | 291 kts | 253° |
| 2026-05-04 18:09 | 52.01383 | -179.75618 | 5135 ft | 291 kts | 253° |
| 2026-05-04 18:09 | 52.00274 | -179.81938 | 5142 ft | 291 kts | 253° |
| 2026-05-04 18:10 | 51.99717 | -179.85097 | 5124 ft | 291 kts | 253° |
| 2026-05-04 18:10 | 51.99161 | -179.88253 | 5125 ft | 290 kts | 253° |
| 2026-05-04 18:10 | 51.98603 | -179.91404 | 5132 ft | 290 kts | 253° |
| 2026-05-04 18:10 | 51.98049 | -179.94547 | 5123 ft | 291 kts | 253° |
| 2026-05-04 18:11 | 51.97491 | -179.97701 | 5125 ft | 291 kts | 253° |
| 2026-05-04 18:11 | 51.96931 | 179.99148 | 5131 ft | 290 kts | 253° |
| 2026-05-04 18:11 | 51.96365 | 179.96005 | 5128 ft | 290 kts | 253° |
| 2026-05-04 18:11 | 51.95796 | 179.92863 | 5132 ft | 290 kts | 253° |
| 2026-05-04 18:12 | 51.95228 | 179.89731 | 5123 ft | 290 kts | 253° |
| 2026-05-04 18:12 | 51.94661 | 179.86590 | 5121 ft | 291 kts | 253° |
| 2026-05-04 18:12 | 51.94098 | 179.83470 | 5126 ft | 291 kts | 253° |
| 2026-05-04 18:12 | 51.93524 | 179.80323 | 5124 ft | 291 kts | 253° |
| 2026-05-04 18:13 | 51.92950 | 179.77168 | 5119 ft | 292 kts | 253° |
| 2026-05-04 18:13 | 51.92376 | 179.74017 | 5127 ft | 293 kts | 253° |
| 2026-05-04 18:13 | 51.91218 | 179.67655 | 5119 ft | 294 kts | 253° |
| 2026-05-04 18:14 | 51.90641 | 179.64482 | 5122 ft | 294 kts | 253° |
| 2026-05-04 18:14 | 51.90067 | 179.61294 | 5117 ft | 295 kts | 253° |
| 2026-05-04 18:14 | 51.89486 | 179.58114 | 5118 ft | 294 kts | 253° |
| 2026-05-04 18:15 | 51.88336 | 179.51846 | 5115 ft | 292 kts | 253° |
| 2026-05-04 18:15 | 51.87170 | 179.45575 | 5123 ft | 290 kts | 252° |
| 2026-05-04 18:15 | 51.86586 | 179.42443 | 5116 ft | 290 kts | 253° |
| 2026-05-04 18:16 | 51.86001 | 179.39318 | 5112 ft | 291 kts | 253° |
| 2026-05-04 18:16 | 51.85412 | 179.36180 | 5115 ft | 291 kts | 253° |
| 2026-05-04 18:16 | 51.84821 | 179.33048 | 5116 ft | 290 kts | 253° |
| 2026-05-04 18:17 | 51.83648 | 179.26824 | 5120 ft | 291 kts | 252° |
| 2026-05-04 18:17 | 51.83051 | 179.23645 | 5121 ft | 290 kts | 253° |
| 2026-05-04 18:17 | 51.81872 | 179.17432 | 5116 ft | 288 kts | 252° |
| 2026-05-04 18:18 | 51.81282 | 179.14339 | 5115 ft | 288 kts | 252° |
| 2026-05-04 18:18 | 51.80695 | 179.11251 | 5116 ft | 287 kts | 252° |
| 2026-05-04 18:18 | 51.80113 | 179.08203 | 5124 ft | 287 kts | 252° |
| 2026-05-04 18:18 | 51.79523 | 179.05124 | 5119 ft | 287 kts | 252° |
| 2026-05-04 18:19 | 51.78326 | 178.98913 | 5115 ft | 289 kts | 252° |
| 2026-05-04 18:19 | 51.77725 | 178.95811 | 5111 ft | 290 kts | 252° |
| 2026-05-04 18:19 | 51.77136 | 178.92750 | 5116 ft | 289 kts | 252° |
| 2026-05-04 18:20 | 51.76540 | 178.89656 | 5103 ft | 289 kts | 252° |
| 2026-05-04 18:20 | 51.75939 | 178.86551 | 5099 ft | 290 kts | 252° |
| 2026-05-04 18:20 | 51.75333 | 178.83441 | 5103 ft | 290 kts | 252° |
| 2026-05-04 18:20 | 51.74724 | 178.80329 | 5103 ft | 291 kts | 252° |
| 2026-05-04 18:21 | 51.74112 | 178.77211 | 5115 ft | 292 kts | 252° |
| 2026-05-04 18:21 | 51.73502 | 178.74096 | 5123 ft | 291 kts | 252° |
| 2026-05-04 18:21 | 51.72895 | 178.70985 | 5116 ft | 290 kts | 252° |
| 2026-05-04 18:21 | 51.72287 | 178.67880 | 5123 ft | 290 kts | 252° |
| 2026-05-04 18:22 | 51.71677 | 178.64779 | 5120 ft | 290 kts | 252° |
| 2026-05-04 18:22 | 51.71065 | 178.61674 | 5115 ft | 291 kts | 252° |
| 2026-05-04 18:22 | 51.70451 | 178.58558 | 5097 ft | 292 kts | 252° |
| 2026-05-04 18:22 | 51.69833 | 178.55430 | 5107 ft | 293 kts | 252° |
| 2026-05-04 18:23 | 51.69210 | 178.52301 | 5100 ft | 293 kts | 252° |
| 2026-05-04 18:23 | 51.68590 | 178.49174 | 5098 ft | 293 kts | 252° |
| 2026-05-04 18:23 | 51.67971 | 178.46063 | 5102 ft | 293 kts | 252° |
| 2026-05-04 18:23 | 51.67351 | 178.42943 | 5103 ft | 292 kts | 252° |
| 2026-05-04 18:24 | 51.66730 | 178.39831 | 5102 ft | 291 kts | 252° |
| 2026-05-04 18:24 | 51.66110 | 178.36736 | 5108 ft | 290 kts | 252° |
| 2026-05-04 18:24 | 51.65492 | 178.33640 | 5098 ft | 290 kts | 252° |
| 2026-05-04 18:24 | 51.64873 | 178.30544 | 5089 ft | 290 kts | 252° |
| 2026-05-04 18:25 | 51.64255 | 178.27452 | 5091 ft | 291 kts | 252° |
| 2026-05-04 18:25 | 51.63642 | 178.24396 | 5092 ft | 291 kts | 252° |
| 2026-05-04 18:25 | 51.63020 | 178.21286 | 5103 ft | 291 kts | 252° |
| 2026-05-04 18:25 | 51.62398 | 178.18189 | 5105 ft | 290 kts | 252° |
| 2026-05-04 18:26 | 51.61778 | 178.15103 | 5102 ft | 290 kts | 252° |
| 2026-05-04 18:26 | 51.61155 | 178.12011 | 5102 ft | 290 kts | 252° |
| 2026-05-04 18:26 | 51.60535 | 178.08924 | 5107 ft | 290 kts | 252° |
| 2026-05-04 18:26 | 51.59918 | 178.05865 | 5100 ft | 291 kts | 252° |
| 2026-05-04 18:27 | 51.59291 | 178.02750 | 5083 ft | 293 kts | 252° |
| 2026-05-04 18:27 | 51.58667 | 177.99636 | 5085 ft | 293 kts | 252° |
| 2026-05-04 18:27 | 51.58041 | 177.96517 | 5083 ft | 294 kts | 252° |
| 2026-05-04 18:27 | 51.57415 | 177.93382 | 5101 ft | 295 kts | 252° |
| 2026-05-04 18:28 | 51.56788 | 177.90251 | 5100 ft | 294 kts | 252° |
| 2026-05-04 18:28 | 51.56159 | 177.87128 | 5098 ft | 294 kts | 252° |
| 2026-05-04 18:28 | 51.55528 | 177.83996 | 5101 ft | 294 kts | 252° |
| 2026-05-04 18:28 | 51.54897 | 177.80871 | 5095 ft | 294 kts | 252° |
| 2026-05-04 18:29 | 51.54265 | 177.77740 | 5092 ft | 295 kts | 252° |
| 2026-05-04 18:29 | 51.53631 | 177.74610 | 5095 ft | 294 kts | 252° |
| 2026-05-04 18:29 | 51.52998 | 177.71487 | 5098 ft | 294 kts | 252° |
| 2026-05-04 18:29 | 51.52363 | 177.68367 | 5092 ft | 294 kts | 252° |
| 2026-05-04 18:30 | 51.51100 | 177.62166 | 5098 ft | 292 kts | 252° |
| 2026-05-04 18:30 | 51.50467 | 177.59070 | 5097 ft | 292 kts | 252° |
| 2026-05-04 18:30 | 51.49839 | 177.55973 | 5084 ft | 292 kts | 252° |
| 2026-05-04 18:31 | 51.49207 | 177.52865 | 5082 ft | 293 kts | 252° |
| 2026-05-04 18:31 | 51.48575 | 177.49749 | 5080 ft | 294 kts | 252° |
| 2026-05-04 18:31 | 51.47939 | 177.46612 | 5082 ft | 295 kts | 252° |
| 2026-05-04 18:31 | 51.47302 | 177.43477 | 5089 ft | 295 kts | 252° |
| 2026-05-04 18:32 | 51.46666 | 177.40340 | 5074 ft | 296 kts | 252° |
| 2026-05-04 18:32 | 51.46031 | 177.37191 | 5086 ft | 297 kts | 252° |
| 2026-05-04 18:32 | 51.45393 | 177.34047 | 5082 ft | 296 kts | 252° |
| 2026-05-04 18:32 | 51.44755 | 177.30901 | 5090 ft | 297 kts | 252° |
| 2026-05-04 18:33 | 51.44120 | 177.27756 | 5085 ft | 296 kts | 252° |
| 2026-05-04 18:33 | 51.43486 | 177.24633 | 5090 ft | 296 kts | 252° |
| 2026-05-04 18:33 | 51.42848 | 177.21500 | 5078 ft | 296 kts | 252° |
| 2026-05-04 18:33 | 51.42211 | 177.18365 | 5086 ft | 296 kts | 252° |
| 2026-05-04 18:34 | 51.41572 | 177.15228 | 5083 ft | 296 kts | 252° |
| 2026-05-04 18:34 | 51.40943 | 177.12129 | 5089 ft | 297 kts | 251° |
| 2026-05-04 18:34 | 51.40309 | 177.08980 | 5089 ft | 297 kts | 252° |
| 2026-05-04 18:34 | 51.39678 | 177.05826 | 5075 ft | 297 kts | 252° |
| 2026-05-04 18:35 | 51.39049 | 177.02668 | 5081 ft | 298 kts | 252° |
| 2026-05-04 18:35 | 51.38420 | 176.99511 | 5079 ft | 298 kts | 252° |
| 2026-05-04 18:35 | 51.37791 | 176.96345 | 5083 ft | 298 kts | 252° |
| 2026-05-04 18:35 | 51.37160 | 176.93183 | 5076 ft | 298 kts | 252° |
| 2026-05-04 18:36 | 51.36528 | 176.90028 | 5082 ft | 298 kts | 252° |
| 2026-05-04 18:36 | 51.35894 | 176.86870 | 5086 ft | 297 kts | 252° |
| 2026-05-04 18:36 | 51.35265 | 176.83751 | 5085 ft | 297 kts | 251° |
| 2026-05-04 18:36 | 51.34634 | 176.80594 | 5089 ft | 298 kts | 252° |
| 2026-05-04 18:37 | 51.34005 | 176.77447 | 5088 ft | 297 kts | 251° |
| 2026-05-04 18:37 | 51.33378 | 176.74299 | 5088 ft | 297 kts | 251° |
| 2026-05-04 18:37 | 51.32748 | 176.71151 | 5080 ft | 297 kts | 252° |
| 2026-05-04 18:37 | 51.32117 | 176.68008 | 5093 ft | 297 kts | 251° |
| 2026-05-04 18:38 | 51.31485 | 176.64864 | 5080 ft | 297 kts | 251° |
| 2026-05-04 18:38 | 51.30858 | 176.61718 | 5082 ft | 297 kts | 251° |
| 2026-05-04 18:38 | 51.30235 | 176.58570 | 5081 ft | 297 kts | 251° |
| 2026-05-04 18:38 | 51.29613 | 176.55428 | 5092 ft | 296 kts | 251° |
| 2026-05-04 18:39 | 51.28992 | 176.52297 | 5104 ft | 295 kts | 252° |
| 2026-05-04 18:39 | 51.28369 | 176.49177 | 5085 ft | 295 kts | 251° |
| 2026-05-04 18:39 | 51.27745 | 176.46057 | 5083 ft | 295 kts | 251° |
| 2026-05-04 18:39 | 51.27122 | 176.42939 | 5092 ft | 295 kts | 251° |
| 2026-05-04 18:40 | 51.26499 | 176.39822 | 5090 ft | 295 kts | 251° |
| 2026-05-04 18:40 | 51.25875 | 176.36706 | 5084 ft | 295 kts | 251° |
| 2026-05-04 18:40 | 51.25254 | 176.33592 | 5085 ft | 295 kts | 251° |
| 2026-05-04 18:40 | 51.24631 | 176.30477 | 5092 ft | 295 kts | 251° |
| 2026-05-04 18:41 | 51.24009 | 176.27360 | 5094 ft | 294 kts | 251° |
| 2026-05-04 18:41 | 51.23386 | 176.24246 | 5089 ft | 294 kts | 251° |
| 2026-05-04 18:41 | 51.22760 | 176.21132 | 5084 ft | 295 kts | 251° |
| 2026-05-04 18:41 | 51.22142 | 176.18049 | 5083 ft | 296 kts | 251° |
| 2026-05-04 18:42 | 51.21515 | 176.14919 | 5092 ft | 296 kts | 251° |
| 2026-05-04 18:42 | 51.20891 | 176.11795 | 5087 ft | 296 kts | 251° |
| 2026-05-04 18:42 | 51.20266 | 176.08675 | 5094 ft | 295 kts | 251° |
| 2026-05-04 18:42 | 51.19641 | 176.05549 | 5093 ft | 295 kts | 251° |
| 2026-05-04 18:43 | 51.19016 | 176.02436 | 5090 ft | 294 kts | 251° |
| 2026-05-04 18:43 | 51.18393 | 175.99326 | 5078 ft | 295 kts | 251° |
| 2026-05-04 18:43 | 51.17771 | 175.96209 | 5082 ft | 295 kts | 251° |
| 2026-05-04 18:43 | 51.17155 | 175.93133 | 5076 ft | 295 kts | 251° |
| 2026-05-04 18:44 | 51.16528 | 175.90014 | 5074 ft | 295 kts | 251° |
| 2026-05-04 18:44 | 51.16317 | 175.88964 | 5078 ft | 295 kts | 251° |
| 2026-05-04 18:44 | 51.15277 | 175.83779 | 5075 ft | 296 kts | 251° |
| 2026-05-04 18:44 | 51.14651 | 175.80652 | 5076 ft | 296 kts | 251° |
| 2026-05-04 18:45 | 51.14024 | 175.77526 | 5077 ft | 296 kts | 251° |
| 2026-05-04 18:45 | 51.13393 | 175.74396 | 5077 ft | 297 kts | 251° |
| 2026-05-04 18:45 | 51.12763 | 175.71263 | 5069 ft | 297 kts | 251° |
| 2026-05-04 18:45 | 51.12134 | 175.68138 | 5077 ft | 296 kts | 251° |
| 2026-05-04 18:46 | 51.11510 | 175.65037 | 5071 ft | 295 kts | 251° |
| 2026-05-04 18:46 | 51.10881 | 175.61927 | 5085 ft | 295 kts | 251° |
| 2026-05-04 18:46 | 51.10251 | 175.58810 | 5080 ft | 295 kts | 251° |
| 2026-05-04 18:46 | 51.09831 | 175.56756 | 5080 ft | 294 kts | 251° |
| 2026-05-04 18:47 | 51.09200 | 175.53662 | 5072 ft | 294 kts | 251° |
| 2026-05-04 18:47 | 51.08566 | 175.50556 | 5080 ft | 295 kts | 251° |
| 2026-05-04 18:47 | 51.07934 | 175.47456 | 5079 ft | 295 kts | 251° |
| 2026-05-04 18:47 | 51.07300 | 175.44353 | 5078 ft | 295 kts | 251° |
| 2026-05-04 18:48 | 51.06665 | 175.41247 | 5080 ft | 295 kts | 251° |
| 2026-05-04 18:48 | 51.06028 | 175.38146 | 5076 ft | 295 kts | 251° |
| 2026-05-04 18:48 | 51.05394 | 175.35043 | 5071 ft | 295 kts | 251° |
| 2026-05-04 18:48 | 51.04757 | 175.31943 | 5074 ft | 295 kts | 251° |
| 2026-05-04 18:49 | 51.04117 | 175.28841 | 5075 ft | 294 kts | 251° |
| 2026-05-04 18:49 | 51.03481 | 175.25755 | 5078 ft | 294 kts | 251° |
| 2026-05-04 18:49 | 51.02850 | 175.22684 | 5071 ft | 293 kts | 251° |
| 2026-05-04 18:49 | 51.02217 | 175.19608 | 5071 ft | 293 kts | 251° |
| 2026-05-04 18:50 | 51.01586 | 175.16529 | 5074 ft | 293 kts | 251° |
| 2026-05-04 18:50 | 51.00955 | 175.13451 | 5069 ft | 293 kts | 251° |
| 2026-05-04 18:50 | 51.00325 | 175.10379 | 5087 ft | 293 kts | 251° |
| 2026-05-04 18:50 | 50.99691 | 175.07310 | 5090 ft | 293 kts | 251° |
| 2026-05-04 18:51 | 50.99054 | 175.04235 | 5084 ft | 293 kts | 251° |
| 2026-05-04 18:51 | 50.98413 | 175.01153 | 5080 ft | 293 kts | 251° |
| 2026-05-04 18:51 | 50.97772 | 174.98080 | 5085 ft | 294 kts | 251° |
| 2026-05-04 18:51 | 50.97131 | 174.94995 | 5080 ft | 294 kts | 251° |
| 2026-05-04 18:52 | 50.96498 | 174.91948 | 5078 ft | 294 kts | 251° |
| 2026-05-04 18:52 | 50.95858 | 174.88869 | 5080 ft | 294 kts | 251° |
| 2026-05-04 18:52 | 50.95218 | 174.85791 | 5078 ft | 293 kts | 251° |
| 2026-05-04 18:52 | 50.94576 | 174.82726 | 5074 ft | 293 kts | 251° |
| 2026-05-04 18:53 | 50.93935 | 174.79658 | 5078 ft | 293 kts | 251° |
| 2026-05-04 18:53 | 50.93286 | 174.76585 | 5068 ft | 293 kts | 251° |
| 2026-05-04 18:53 | 50.92637 | 174.73515 | 5076 ft | 293 kts | 251° |
| 2026-05-04 18:53 | 50.91989 | 174.70454 | 5067 ft | 293 kts | 251° |
| 2026-05-04 18:54 | 50.91339 | 174.67393 | 5079 ft | 293 kts | 251° |
| 2026-05-04 18:54 | 50.90689 | 174.64327 | 5073 ft | 293 kts | 251° |
| 2026-05-04 18:54 | 50.90037 | 174.61263 | 5076 ft | 293 kts | 251° |
| 2026-05-04 18:54 | 50.89386 | 174.58193 | 5077 ft | 294 kts | 251° |
| 2026-05-04 18:55 | 50.88733 | 174.55122 | 5068 ft | 294 kts | 251° |
| 2026-05-04 18:55 | 50.87440 | 174.49034 | 5079 ft | 293 kts | 251° |
| 2026-05-04 18:55 | 50.86789 | 174.45978 | 5075 ft | 293 kts | 251° |
| 2026-05-04 18:56 | 50.86138 | 174.42916 | 5071 ft | 293 kts | 251° |
| 2026-05-04 18:56 | 50.85483 | 174.39837 | 5070 ft | 293 kts | 251° |
| 2026-05-04 18:56 | 50.84832 | 174.36778 | 5069 ft | 294 kts | 251° |
| 2026-05-04 18:56 | 50.84178 | 174.33712 | 5069 ft | 293 kts | 251° |
| 2026-05-04 18:57 | 50.83520 | 174.30656 | 5069 ft | 293 kts | 251° |
| 2026-05-04 18:57 | 50.82863 | 174.27605 | 5063 ft | 293 kts | 251° |
| 2026-05-04 18:57 | 50.82203 | 174.24553 | 5069 ft | 293 kts | 251° |
| 2026-05-04 18:57 | 50.81546 | 174.21506 | 5061 ft | 293 kts | 250° |
| 2026-05-04 18:58 | 50.80888 | 174.18456 | 5066 ft | 293 kts | 251° |
| 2026-05-04 18:58 | 50.80229 | 174.15405 | 5071 ft | 293 kts | 250° |
| 2026-05-04 18:58 | 50.79570 | 174.12354 | 5062 ft | 293 kts | 251° |
| 2026-05-04 18:58 | 50.78909 | 174.09304 | 5067 ft | 293 kts | 250° |
| 2026-05-04 18:59 | 50.78247 | 174.06255 | 5057 ft | 293 kts | 251° |
| 2026-05-04 18:59 | 50.77594 | 174.03252 | 5071 ft | 292 kts | 250° |
| 2026-05-04 18:59 | 50.76936 | 174.00211 | 5065 ft | 292 kts | 250° |
| 2026-05-04 18:59 | 50.76278 | 173.97174 | 5072 ft | 293 kts | 250° |
| 2026-05-04 19:00 | 50.75618 | 173.94126 | 5071 ft | 293 kts | 250° |
| 2026-05-04 19:00 | 50.74955 | 173.91085 | 5064 ft | 293 kts | 251° |
| 2026-05-04 19:00 | 50.74290 | 173.88051 | 5058 ft | 292 kts | 250° |
| 2026-05-04 19:00 | 50.73619 | 173.85016 | 5057 ft | 292 kts | 250° |
| 2026-05-04 19:01 | 50.72949 | 173.81991 | 5060 ft | 292 kts | 250° |
| 2026-05-04 19:01 | 50.72283 | 173.78966 | 5066 ft | 292 kts | 250° |
| 2026-05-04 19:01 | 50.71615 | 173.75941 | 5062 ft | 292 kts | 250° |
| 2026-05-04 19:01 | 50.70949 | 173.72917 | 5068 ft | 292 kts | 250° |
| 2026-05-04 19:02 | 50.70470 | 173.69835 | 5047 ft | 290 kts | 270° |
| 2026-05-04 19:02 | 50.70860 | 173.66774 | 5030 ft | 284 kts | 299° |
| 2026-05-04 19:02 | 50.72059 | 173.64382 | 5028 ft | 276 kts | 327° |
| 2026-05-04 19:02 | 50.73751 | 173.63184 | 5025 ft | 265 kts | 356° |
| 2026-05-04 19:03 | 50.75553 | 173.63025 | 5038 ft | 261 kts | 4° |
| 2026-05-04 19:03 | 50.77327 | 173.63348 | 5032 ft | 254 kts | 23° |
| 2026-05-04 19:03 | 50.78959 | 173.64389 | 5041 ft | 253 kts | 27° |
| 2026-05-04 19:03 | 50.80566 | 173.65532 | 5050 ft | 253 kts | 28° |
| 2026-05-04 19:04 | 50.82164 | 173.66714 | 5051 ft | 253 kts | 29° |
| 2026-05-04 19:04 | 50.83755 | 173.67916 | 5052 ft | 254 kts | 29° |
| 2026-05-04 19:04 | 50.85346 | 173.69131 | 5053 ft | 254 kts | 30° |
| 2026-05-04 19:04 | 50.86942 | 173.70348 | 5053 ft | 254 kts | 30° |
| 2026-05-04 19:05 | 50.88533 | 173.71570 | 5055 ft | 254 kts | 30° |
| 2026-05-04 19:05 | 50.90128 | 173.72794 | 5059 ft | 254 kts | 30° |
| 2026-05-04 19:05 | 50.91719 | 173.74017 | 5058 ft | 254 kts | 30° |
| 2026-05-04 19:05 | 50.93311 | 173.75238 | 5059 ft | 254 kts | 30° |
| 2026-05-04 19:06 | 50.94903 | 173.76464 | 5048 ft | 255 kts | 30° |
| 2026-05-04 19:06 | 50.96504 | 173.77687 | 5048 ft | 255 kts | 30° |
| 2026-05-04 19:06 | 50.98107 | 173.78906 | 5048 ft | 256 kts | 29° |
| 2026-05-04 19:06 | 50.99711 | 173.80124 | 5053 ft | 256 kts | 30° |
| 2026-05-04 19:07 | 51.01319 | 173.81344 | 5053 ft | 256 kts | 30° |
| 2026-05-04 19:07 | 51.02928 | 173.82569 | 5054 ft | 256 kts | 30° |
| 2026-05-04 19:07 | 51.04518 | 173.83777 | 5054 ft | 257 kts | 30° |
| 2026-05-04 19:07 | 51.06129 | 173.85001 | 5054 ft | 257 kts | 30° |
| 2026-05-04 19:08 | 51.07747 | 173.86215 | 5054 ft | 257 kts | 30° |
| 2026-05-04 19:08 | 51.09364 | 173.87423 | 5062 ft | 257 kts | 29° |
| 2026-05-04 19:08 | 51.10980 | 173.88636 | 5062 ft | 256 kts | 29° |
| 2026-05-04 19:08 | 51.12609 | 173.89794 | 5061 ft | 258 kts | 26° |
| 2026-05-04 19:09 | 51.14282 | 173.90836 | 5062 ft | 259 kts | 25° |
| 2026-05-04 19:09 | 51.16009 | 173.91869 | 5079 ft | 271 kts | 25° |
| 2026-05-04 19:09 | 51.17800 | 173.92935 | 5081 ft | 279 kts | 25° |
| 2026-05-04 19:09 | 51.19639 | 173.94026 | 5085 ft | 286 kts | 25° |
| 2026-05-04 19:10 | 51.21530 | 173.95148 | 5091 ft | 293 kts | 24° |
| 2026-05-04 19:10 | 51.23455 | 173.96293 | 5097 ft | 297 kts | 24° |
| 2026-05-04 19:10 | 51.25406 | 173.97458 | 5099 ft | 301 kts | 24° |
| 2026-05-04 19:10 | 51.27380 | 173.98603 | 5101 ft | 304 kts | 23° |
| 2026-05-04 19:11 | 51.29385 | 173.99702 | 5103 ft | 306 kts | 22° |
| 2026-05-04 19:11 | 51.31404 | 174.00796 | 5105 ft | 307 kts | 22° |
| 2026-05-04 19:11 | 51.33435 | 174.01879 | 5108 ft | 308 kts | 22° |
| 2026-05-04 19:11 | 51.35454 | 174.02957 | 5108 ft | 308 kts | 22° |
| 2026-05-04 19:12 | 51.37493 | 174.04051 | 5108 ft | 309 kts | 22° |
| 2026-05-04 19:12 | 51.41578 | 174.06245 | 5112 ft | 309 kts | 22° |
| 2026-05-04 19:12 | 51.43619 | 174.07344 | 5113 ft | 310 kts | 22° |
| 2026-05-04 19:13 | 51.45665 | 174.08438 | 5116 ft | 310 kts | 22° |
| 2026-05-04 19:13 | 51.47686 | 174.09523 | 5119 ft | 310 kts | 22° |
| 2026-05-04 19:13 | 51.49731 | 174.10616 | 5121 ft | 310 kts | 22° |
| 2026-05-04 19:13 | 51.51809 | 174.11726 | 5121 ft | 310 kts | 22° |
| 2026-05-04 19:14 | 51.53855 | 174.12825 | 5120 ft | 310 kts | 22° |
| 2026-05-04 19:14 | 51.55902 | 174.13930 | 5119 ft | 310 kts | 22° |
| 2026-05-04 19:14 | 51.57918 | 174.15024 | 5125 ft | 310 kts | 22° |
| 2026-05-04 19:14 | 51.59968 | 174.16131 | 5127 ft | 310 kts | 22° |
| 2026-05-04 19:15 | 51.62016 | 174.17239 | 5125 ft | 310 kts | 22° |
| 2026-05-04 19:15 | 51.64062 | 174.18343 | 5124 ft | 310 kts | 22° |
| 2026-05-04 19:15 | 51.66106 | 174.19452 | 5124 ft | 310 kts | 22° |
| 2026-05-04 19:15 | 51.68151 | 174.20567 | 5120 ft | 310 kts | 22° |
| 2026-05-04 19:16 | 51.70196 | 174.21680 | 5119 ft | 310 kts | 22° |
| 2026-05-04 19:16 | 51.72238 | 174.22806 | 5120 ft | 310 kts | 22° |
| 2026-05-04 19:16 | 51.74279 | 174.23934 | 5120 ft | 310 kts | 22° |
| 2026-05-04 19:16 | 51.76325 | 174.25054 | 5128 ft | 310 kts | 22° |
| 2026-05-04 19:17 | 51.78373 | 174.26174 | 5128 ft | 310 kts | 22° |
| 2026-05-04 19:17 | 51.80418 | 174.27281 | 5128 ft | 310 kts | 22° |
| 2026-05-04 19:17 | 51.82456 | 174.28402 | 5129 ft | 310 kts | 22° |
| 2026-05-04 19:17 | 51.84473 | 174.29505 | 5128 ft | 310 kts | 22° |
| 2026-05-04 19:18 | 51.86515 | 174.30632 | 5134 ft | 310 kts | 22° |
| 2026-05-04 19:18 | 51.88562 | 174.31769 | 5133 ft | 310 kts | 23° |
| 2026-05-04 19:18 | 51.90606 | 174.32893 | 5134 ft | 310 kts | 22° |
| 2026-05-04 19:18 | 51.92649 | 174.34017 | 5126 ft | 310 kts | 22° |
| 2026-05-04 19:19 | 51.94695 | 174.35125 | 5124 ft | 310 kts | 22° |
| 2026-05-04 19:19 | 51.96744 | 174.36225 | 5123 ft | 310 kts | 22° |
| 2026-05-04 19:19 | 51.98791 | 174.37338 | 5123 ft | 310 kts | 22° |
| 2026-05-04 19:19 | 52.00833 | 174.38454 | 5123 ft | 310 kts | 22° |
| 2026-05-04 19:20 | 52.02852 | 174.39567 | 5128 ft | 310 kts | 22° |
| 2026-05-04 19:20 | 52.04900 | 174.40682 | 5128 ft | 310 kts | 22° |
| 2026-05-04 19:20 | 52.06958 | 174.41749 | 5133 ft | 311 kts | 21° |
| 2026-05-04 19:20 | 52.09054 | 174.42648 | 5133 ft | 312 kts | 18° |
| 2026-05-04 19:21 | 52.11170 | 174.43454 | 5133 ft | 312 kts | 17° |
| 2026-05-04 19:21 | 52.13287 | 174.44238 | 5135 ft | 312 kts | 17° |
| 2026-05-04 19:21 | 52.15407 | 174.45011 | 5131 ft | 313 kts | 16° |
| 2026-05-04 19:21 | 52.17537 | 174.45775 | 5131 ft | 313 kts | 15° |
| 2026-05-04 19:22 | 52.19679 | 174.46456 | 5129 ft | 314 kts | 15° |
| 2026-05-04 19:22 | 52.21827 | 174.47103 | 5129 ft | 314 kts | 14° |
| 2026-05-04 19:22 | 52.23976 | 174.47748 | 5131 ft | 314 kts | 15° |
| 2026-05-04 19:22 | 52.26098 | 174.48383 | 5138 ft | 314 kts | 14° |
| 2026-05-04 19:23 | 52.28248 | 174.49030 | 5137 ft | 314 kts | 15° |
| 2026-05-04 19:23 | 52.30396 | 174.49675 | 5139 ft | 314 kts | 14° |
| 2026-05-04 19:23 | 52.32546 | 174.50322 | 5139 ft | 314 kts | 14° |
| 2026-05-04 19:23 | 52.34698 | 174.50954 | 5137 ft | 314 kts | 14° |
| 2026-05-04 19:24 | 52.36843 | 174.51599 | 5144 ft | 314 kts | 14° |
| 2026-05-04 19:24 | 52.38956 | 174.52255 | 4888 ft | 303 kts | 15° |
| 2026-05-04 19:24 | 52.41029 | 174.53020 | 3990 ft | 307 kts | 19° |
| 2026-05-04 19:24 | 52.43018 | 174.54097 | 3563 ft | 294 kts | 26° |
| 2026-05-04 19:25 | 52.44871 | 174.55425 | 3056 ft | 287 kts | 29° |
| 2026-05-04 19:25 | 52.46645 | 174.56801 | 2572 ft | 280 kts | 31° |
| 2026-05-04 19:25 | 52.48382 | 174.58252 | 1942 ft | 280 kts | 32° |
| 2026-05-04 19:25 | 52.50113 | 174.59607 | 1638 ft | 272 kts | 24° |
| 2026-05-04 19:26 | 52.51972 | 174.60024 | 1382 ft | 272 kts | 359° |
| 2026-05-04 19:26 | 52.53627 | 174.58740 | 1604 ft | 257 kts | 316° |
| 2026-05-04 19:26 | 52.54349 | 174.56216 | 1630 ft | 248 kts | 278° |
| 2026-05-04 19:26 | 52.54131 | 174.53383 | 1143 ft | 253 kts | 247° |
| 2026-05-04 19:27 | 52.53663 | 174.50607 | 795 ft | 250 kts | 266° |
| 2026-05-04 19:27 | 52.54138 | 174.48052 | 679 ft | 234 kts | 317° |
| 2026-05-04 19:27 | 52.55317 | 174.46000 | 406 ft | 255 kts | 320° |
| 2026-05-04 19:27 | 52.56585 | 174.44021 | 542 ft | 248 kts | 322° |
| 2026-05-04 19:28 | 52.57936 | 174.42300 | 456 ft | 243 kts | 335° |
| 2026-05-04 19:28 | 52.59411 | 174.41034 | 433 ft | 237 kts | 339° |
| 2026-05-04 19:28 | 52.60919 | 174.39949 | 388 ft | 235 kts | 345° |
| 2026-05-04 19:28 | 52.62446 | 174.39065 | 387 ft | 231 kts | 348° |
| 2026-05-04 19:29 | 52.63970 | 174.38277 | 396 ft | 229 kts | 348° |
| 2026-05-04 19:29 | 52.65493 | 174.37382 | 303 ft | 232 kts | 343° |
| 2026-05-04 19:29 | 52.66947 | 174.36342 | 466 ft | 227 kts | 336° |
| 2026-05-04 19:29 | 52.68230 | 174.34765 | 433 ft | 234 kts | 319° |
| 2026-05-04 19:30 | 52.69235 | 174.32624 | 431 ft | 239 kts | 304° |
| 2026-05-04 19:30 | 52.70037 | 174.30270 | 471 ft | 227 kts | 301° |
| 2026-05-04 19:30 | 52.70713 | 174.27993 | 420 ft | 215 kts | 293° |
| 2026-05-04 19:30 | 52.71182 | 174.25727 | 354 ft | 206 kts | 289° |
| 2026-05-04 19:31 | 52.71420 | 174.23424 | 227 ft | 196 kts | 276° |
| 2026-05-04 19:31 | 52.71533 | 174.21523 | 382 ft | 144 kts | 278° |
| 2026-05-04 19:31 | 52.71651 | 174.19922 | 268 ft | 141 kts | 277° |
| 2026-05-04 19:31 | 52.71771 | 174.18337 | 160 ft | 140 kts | 280° |
| 2026-05-04 19:32 | 52.71949 | 174.16814 | 175 ft | 133 kts | 285° |
| 2026-05-04 19:32 | 52.72112 | 174.15264 | 170 ft | 135 kts | 275° |
| 2026-05-04 19:32 | 52.71897 | 174.13841 | 254 ft | 126 kts | 239° |
| 2026-05-04 19:32 | 52.71398 | 174.12683 | 296 ft | 119 kts | 207° |
| 2026-05-04 19:33 | 52.70915 | 174.12447 | 410 ft | 107 kts | 165° |
| 2026-05-04 19:33 | 52.70373 | 174.13280 | 366 ft | 117 kts | 113° |
| 2026-05-04 19:33 | 52.70001 | 174.14399 | 638 ft | 111 kts | 121° |
| 2026-05-04 19:33 | 52.69435 | 174.15488 | 437 ft | 132 kts | 126° |
| 2026-05-04 19:34 | 52.68907 | 174.16700 | 289 ft | 121 kts | 94° |
| 2026-05-04 19:34 | 52.69527 | 174.17425 | 337 ft | 149 kts | 353° |
| 2026-05-04 19:34 | 52.70039 | 174.15879 | 330 ft | 163 kts | 285° |
| 2026-05-04 19:34 | 52.70463 | 174.14286 | 229 ft | 149 kts | 310° |
| 2026-05-04 19:35 | 52.70917 | 174.12813 | 106 ft | 136 kts | 294° |
| 2026-05-04 19:35 | 52.71169 | 174.11640 | 95 ft | 74 kts | 286° |
| 2026-05-04 19:35 | 52.70974 | 174.12560 | 95 ft | 0 kts | 292° |
| 2026-05-04 19:35 | 52.71004 | 174.12521 | 97 ft | 14 kts | 333° |
| 2026-05-04 19:36 | 52.71088 | 174.12505 | 96 ft | 18 kts | 14° |
| 2026-05-04 19:36 | 52.71194 | 174.12528 | 94 ft | 10 kts | 315° |
| 2026-05-04 19:36 | 52.71206 | 174.12470 | 94 ft | 0 kts | 289° |
| 2026-05-04 19:37 | 52.71206 | 174.12469 | 94 ft | 0 kts | 289° |
| 2026-05-04 19:38 | 52.71206 | 174.12467 | 94 ft | 0 kts | 289° |
| 2026-05-04 19:43 | 52.71207 | 174.12466 | 94 ft | 0 kts | 289° |
| 2026-05-04 23:06 | 52.71207 | 174.12465 | 94 ft | 2 kts | 285° |
| 2026-05-04 23:06 | 52.71185 | 174.12393 | 94 ft | 13 kts | 245° |
| 2026-05-04 23:06 | 52.71216 | 174.12163 | 96 ft | 23 kts | 288° |
| 2026-05-04 23:06 | 52.71267 | 174.11888 | 96 ft | 31 kts | 289° |
| 2026-05-04 23:07 | 52.71372 | 174.11642 | 97 ft | 14 kts | 286° |
| 2026-05-04 23:07 | 52.71375 | 174.11626 | 98 ft | 0 kts | 286° |